Observation data for McCamey on 11/17/2019      Previous  Date       Current Mesonet Observations  Soil Data  Daily Summary Page  Observations in Plain Language
KMC4 170600Z 09003KT 10/05 A3002 RMK A01 T01020047  RH  069%=      5-min Rain = 0
KMC4 170601Z 08003KT 10/05 A3002 RMK A01 T01040047  RH  068%=      5-min Rain = 0
KMC4 170602Z 08003KT 10/05 A3002 RMK A01 T01040047  RH  068%=      5-min Rain = 0
KMC4 170603Z 06003KT 10/05 A3002 RMK A01 T01040047  RH  068%=      5-min Rain = 0
KMC4 170604Z 07003KT 10/05 A3002 RMK A01 T01040047  RH  068%=      5-min Rain = 0
KMC4 170605Z 07003KT 10/05 A3002 RMK A01 T01040047  RH  068%=      5-min Rain = 0
KMC4 170606Z 08003KT 10/05 A3002 RMK A01 T01040047  RH  068%=      5-min Rain = 0
KMC4 170607Z 08003KT 10/05 A3002 RMK A01 T01030047  RH  068%=      5-min Rain = 0
KMC4 170608Z 08003KT 10/05 A3002 RMK A01 T01030047  RH  068%=      5-min Rain = 0
KMC4 170609Z 10004KT 10/05 A3002 RMK A01 T01020046  RH  068%=      5-min Rain = 0
KMC4 170610Z 11004KT 10/05 A3002 RMK A01 T01020046  RH  068%=      5-min Rain = 0
KMC4 170611Z 11004KT 10/05 A3002 RMK A01 T01020047  RH  068%=      5-min Rain = 0
KMC4 170612Z 12004KT 10/05 A3002 RMK A01 T01030047  RH  068%=      5-min Rain = 0
KMC4 170613Z 12004KT 10/05 A3002 RMK A01 T01040047  RH  068%=      5-min Rain = 0
KMC4 170614Z 12004KT 10/05 A3002 RMK A01 T01040047  RH  068%=      5-min Rain = 0
KMC4 170615Z 13005KT 10/05 A3002 RMK A01 T01030047  RH  068%=      5-min Rain = 0
KMC4 170616Z 13004KT 10/05 A3002 RMK A01 T01030047  RH  068%=      5-min Rain = 0
KMC4 170617Z 14005KT 10/05 A3002 RMK A01 T01020047  RH  069%=      5-min Rain = 0
KMC4 170618Z 14005KT 10/05 A3002 RMK A01 T01020047  RH  069%=      5-min Rain = 0
KMC4 170619Z 14005KT 10/05 A3002 RMK A01 T01000046  RH  069%=      5-min Rain = 0
KMC4 170620Z 14005KT 10/05 A3002 RMK A01 T00990046  RH  070%=      5-min Rain = 0
KMC4 170621Z 14005KT 10/05 A3002 RMK A01 T00980046  RH  070%=      5-min Rain = 0
KMC4 170622Z 13005KT 10/05 A3002 RMK A01 T00980046  RH  070%=      5-min Rain = 0
KMC4 170623Z 12004KT 10/05 A3002 RMK A01 T00970046  RH  071%=      5-min Rain = 0
KMC4 170624Z 11004KT 10/05 A3002 RMK A01 T00970046  RH  071%=      5-min Rain = 0
KMC4 170625Z 10003KT 10/05 A3002 RMK A01 T00970047  RH  071%=      5-min Rain = 0
KMC4 170626Z 09003KT 10/05 A3002 RMK A01 T00980047  RH  070%=      5-min Rain = 0
KMC4 170627Z 09004KT 10/05 A3002 RMK A01 T00990047  RH  070%=      5-min Rain = 0
KMC4 170628Z 08004KT 10/05 A3002 RMK A01 T00990046  RH  070%=      5-min Rain = 0
KMC4 170629Z 07004KT 10/05 A3002 RMK A01 T00990046  RH  070%=      5-min Rain = 0
KMC4 170630Z 08004KT 10/05 A3002 RMK A01 T00990046  RH  070%=      5-min Rain = 0
KMC4 170631Z 08004KT 10/05 A3002 RMK A01 T00980046  RH  070%=      5-min Rain = 0
KMC4 170632Z 08003KT 10/05 A3002 RMK A01 T00980046  RH  070%=      5-min Rain = 0
KMC4 170633Z 08004KT 10/05 A3002 RMK A01 T00990046  RH  070%=      5-min Rain = 0
KMC4 170634Z 09004KT 10/05 A3002 RMK A01 T00990046  RH  070%=      5-min Rain = 0
KMC4 170635Z 10004KT 10/05 A3002 RMK A01 T00990046  RH  070%=      5-min Rain = 0
KMC4 170636Z 11005KT 10/05 A3002 RMK A01 T00990046  RH  070%=      5-min Rain = 0
KMC4 170637Z 11004KT 10/05 A3002 RMK A01 T00990047  RH  070%=      5-min Rain = 0
KMC4 170638Z 11004KT 10/05 A3002 RMK A01 T00990047  RH  070%=      5-min Rain = 0
KMC4 170639Z 11004KT 10/05 A3002 RMK A01 T00990047  RH  070%=      5-min Rain = 0
KMC4 170640Z 12004KT 10/05 A3002 RMK A01 T01000046  RH  070%=      5-min Rain = 0
KMC4 170641Z 12004KT 10/05 A3002 RMK A01 T01000046  RH  069%=      5-min Rain = 0
KMC4 170642Z 11004KT 10/05 A3002 RMK A01 T01000047  RH  069%=      5-min Rain = 0
KMC4 170643Z 11003KT 10/05 A3002 RMK A01 T00990046  RH  070%=      5-min Rain = 0
KMC4 170644Z 12003KT 10/05 A3002 RMK A01 T00990047  RH  070%=      5-min Rain = 0
KMC4 170645Z 12004KT 10/05 A3002 RMK A01 T00990047  RH  070%=      5-min Rain = 0
KMC4 170646Z 12003KT 10/05 A3002 RMK A01 T00990047  RH  070%=      5-min Rain = 0
KMC4 170647Z 12003KT 10/05 A3002 RMK A01 T00990047  RH  070%=      5-min Rain = 0
KMC4 170648Z 12004KT 10/05 A3002 RMK A01 T00990047  RH  070%=      5-min Rain = 0
KMC4 170649Z 12004KT 10/05 A3002 RMK A01 T00990047  RH  070%=      5-min Rain = 0
KMC4 170650Z 12005KT 10/05 A3002 RMK A01 T00980046  RH  070%=      5-min Rain = 0
KMC4 170651Z 12005KT 10/05 A3002 RMK A01 T00980046  RH  070%=      5-min Rain = 0
KMC4 170652Z 13005KT 10/05 A3001 RMK A01 T00970046  RH  071%=      5-min Rain = 0
KMC4 170653Z 12005KT 10/05 A3001 RMK A01 T00960046  RH  071%=      5-min Rain = 0
KMC4 170654Z 12005KT 10/05 A3001 RMK A01 T00970047  RH  071%=      5-min Rain = 0
KMC4 170655Z 12005KT 10/05 A3001 RMK A01 T00960047  RH  071%=      5-min Rain = 0
KMC4 170656Z 11004KT 10/05 A3001 RMK A01 T00970047  RH  071%=      5-min Rain = 0
KMC4 170657Z 10004KT 10/05 A3001 RMK A01 T00960046  RH  071%=      5-min Rain = 0
KMC4 170658Z 08003KT 10/05 A3001 RMK A01 T00970046  RH  071%=      5-min Rain = 0
KMC4 170659Z 08003KT 10/05 A3001 RMK A01 T00960046  RH  071%=      5-min Rain = 0
KMC4 170700Z 08003KT 10/05 A3001 RMK A01 T00950045  RH  071%=      5-min Rain = 0
KMC4 170701Z 08003KT 09/05 A3001 RMK A01 T00940045  RH  071%=      5-min Rain = 0
KMC4 170702Z 08003KT 09/05 A3001 RMK A01 T00940045  RH  072%=      5-min Rain = 0
KMC4 170703Z 08003KT 09/05 A3001 RMK A01 T00940046  RH  072%=      5-min Rain = 0
KMC4 170704Z 09003KT 09/05 A3001 RMK A01 T00940045  RH  072%=      5-min Rain = 0
KMC4 170705Z 09003KT 09/05 A3001 RMK A01 T00930045  RH  072%=      5-min Rain = 0
KMC4 170706Z 10003KT 09/05 A3001 RMK A01 T00940046  RH  072%=      5-min Rain = 0
KMC4 170707Z 10003KT 09/05 A3001 RMK A01 T00940045  RH  072%=      5-min Rain = 0
KMC4 170708Z 10003KT 09/05 A3001 RMK A01 T00940046  RH  072%=      5-min Rain = 0
KMC4 170709Z 11003KT 10/05 A3001 RMK A01 T00950046  RH  071%=      5-min Rain = 0
KMC4 170710Z 12004KT 09/05 A3001 RMK A01 T00940045  RH  072%=      5-min Rain = 0
KMC4 170711Z 12004KT 10/05 A3001 RMK A01 T00950046  RH  072%=      5-min Rain = 0
KMC4 170712Z 12005KT 09/05 A3001 RMK A01 T00940045  RH  072%=      5-min Rain = 0
KMC4 170713Z 12005KT 09/05 A3001 RMK A01 T00940046  RH  072%=      5-min Rain = 0
KMC4 170714Z 12005KT 09/05 A3001 RMK A01 T00940046  RH  072%=      5-min Rain = 0
KMC4 170715Z 12005KT 09/05 A3001 RMK A01 T00940046  RH  072%=      5-min Rain = 0
KMC4 170716Z 12005KT 09/05 A3001 RMK A01 T00930046  RH  072%=      5-min Rain = 0
KMC4 170717Z 11005KT 09/05 A3001 RMK A01 T00930046  RH  072%=      5-min Rain = 0
KMC4 170718Z 11004KT 09/05 A3001 RMK A01 T00930046  RH  072%=      5-min Rain = 0
KMC4 170719Z 11004KT 09/05 A3001 RMK A01 T00930046  RH  072%=      5-min Rain = 0
KMC4 170720Z 11004KT 09/05 A3001 RMK A01 T00930046  RH  072%=      5-min Rain = 0
KMC4 170721Z 11003KT 09/05 A3001 RMK A01 T00920045  RH  072%=      5-min Rain = 0
KMC4 170722Z 10003KT 09/05 A3001 RMK A01 T00920046  RH  073%=      5-min Rain = 0
KMC4 170723Z 09003KT 09/05 A3001 RMK A01 T00920045  RH  073%=      5-min Rain = 0
KMC4 170724Z 10002KT 09/05 A3001 RMK A01 T00910045  RH  073%=      5-min Rain = 0
KMC4 170725Z 10002KT 09/05 A3001 RMK A01 T00910045  RH  073%=      5-min Rain = 0
KMC4 170726Z 11003KT 09/05 A3001 RMK A01 T00900045  RH  073%=      5-min Rain = 0
KMC4 170727Z 11003KT 09/05 A3001 RMK A01 T00910045  RH  073%=      5-min Rain = 0
KMC4 170728Z 11004KT 09/05 A3001 RMK A01 T00910045  RH  073%=      5-min Rain = 0
KMC4 170729Z 11003KT 09/05 A3001 RMK A01 T00900045  RH  073%=      5-min Rain = 0
KMC4 170730Z 11003KT 09/05 A3001 RMK A01 T00900045  RH  073%=      5-min Rain = 0
KMC4 170731Z 12003KT 09/05 A3001 RMK A01 T00900045  RH  073%=      5-min Rain = 0
KMC4 170732Z 12003KT 09/05 A3001 RMK A01 T00900045  RH  073%=      5-min Rain = 0
KMC4 170733Z 11003KT 09/05 A30 RMK A01 T00900045  RH  073%=      5-min Rain = 0
KMC4 170734Z 11003KT 09/05 A30 RMK A01 T00900045  RH  073%=      5-min Rain = 0
KMC4 170735Z 11003KT 09/04 A30 RMK A01 T00900044  RH  073%=      5-min Rain = 0
KMC4 170736Z 11004KT 09/04 A30 RMK A01 T00890044  RH  073%=      5-min Rain = 0
KMC4 170737Z 11004KT 09/05 A30 RMK A01 T00890045  RH  074%=      5-min Rain = 0
KMC4 170738Z 12003KT 09/05 A30 RMK A01 T00890045  RH  074%=      5-min Rain = 0
KMC4 170739Z 12004KT 09/05 A30 RMK A01 T00900045  RH  073%=      5-min Rain = 0
KMC4 170740Z 12003KT 09/05 A30 RMK A01 T00900045  RH  073%=      5-min Rain = 0
KMC4 170741Z 13004KT 09/04 A30 RMK A01 T00890044  RH  073%=      5-min Rain = 0
KMC4 170742Z 12003KT 09/04 A30 RMK A01 T00890044  RH  074%=      5-min Rain = 0
KMC4 170743Z 12003KT 09/04 A30 RMK A01 T00880044  RH  074%=      5-min Rain = 0
KMC4 170744Z 12003KT 09/04 A30 RMK A01 T00880044  RH  074%=      5-min Rain = 0
KMC4 170745Z 11003KT 09/04 A30 RMK A01 T00880044  RH  074%=      5-min Rain = 0
KMC4 170746Z 11003KT 09/04 A30 RMK A01 T00870044  RH  074%=      5-min Rain = 0
KMC4 170747Z 11003KT 09/04 A30 RMK A01 T00870044  RH  074%=      5-min Rain = 0
KMC4 170748Z 11003KT 09/05 A30 RMK A01 T00880045  RH  074%=      5-min Rain = 0
KMC4 170749Z 11002KT 09/04 A30 RMK A01 T00880044  RH  074%=      5-min Rain = 0
KMC4 170750Z 11003KT 09/04 A30 RMK A01 T00880044  RH  074%=      5-min Rain = 0
KMC4 170751Z 10003KT 09/04 A30 RMK A01 T00880044  RH  074%=      5-min Rain = 0
KMC4 170752Z 10003KT 09/04 A30 RMK A01 T00880044  RH  074%=      5-min Rain = 0
KMC4 170753Z 10003KT 09/04 A30 RMK A01 T00880044  RH  074%=      5-min Rain = 0
KMC4 170754Z 10003KT 09/04 A30 RMK A01 T00880044  RH  074%=      5-min Rain = 0
KMC4 170755Z 11004KT 09/04 A3001 RMK A01 T00880044  RH  074%=      5-min Rain = 0
KMC4 170756Z 11003KT 09/04 A3001 RMK A01 T00870044  RH  074%=      5-min Rain = 0
KMC4 170757Z 11003KT 09/04 A3001 RMK A01 T00870044  RH  074%=      5-min Rain = 0
KMC4 170758Z 11003KT 09/04 A3001 RMK A01 T00870044  RH  074%=      5-min Rain = 0
KMC4 170759Z 11003KT 09/04 A3001 RMK A01 T00870044  RH  074%=      5-min Rain = 0
KMC4 170800Z 12003KT 09/04 A3001 RMK A01 T00870044  RH  074%=      5-min Rain = 0
KMC4 170801Z 12003KT 09/05 A3001 RMK A01 T00880045  RH  074%=      5-min Rain = 0
KMC4 170802Z 12002KT 09/05 A3001 RMK A01 T00880045  RH  074%=      5-min Rain = 0
KMC4 170803Z 12002KT 09/04 A3001 RMK A01 T00880044  RH  074%=      5-min Rain = 0
KMC4 170804Z 11002KT 09/04 A30 RMK A01 T00880044  RH  074%=      5-min Rain = 0
KMC4 170805Z 12002KT 09/04 A30 RMK A01 T00880044  RH  074%=      5-min Rain = 0
KMC4 170806Z 10002KT 09/04 A3001 RMK A01 T00880044  RH  074%=      5-min Rain = 0
KMC4 170807Z 09002KT 09/04 A3001 RMK A01 T00880044  RH  074%=      5-min Rain = 0
KMC4 170808Z 07002KT 09/04 A3001 RMK A01 T00850043  RH  075%=      5-min Rain = 0
KMC4 170809Z 06002KT 08/04 A3001 RMK A01 T00840044  RH  075%=      5-min Rain = 0
KMC4 170810Z 04002KT 08/04 A3001 RMK A01 T00840044  RH  076%=      5-min Rain = 0
KMC4 170811Z 03002KT 08/04 A3001 RMK A01 T00840044  RH  076%=      5-min Rain = 0
KMC4 170812Z 03002KT 08/04 A3001 RMK A01 T00840044  RH  076%=      5-min Rain = 0
KMC4 170813Z 04002KT 08/04 A3001 RMK A01 T00840044  RH  076%=      5-min Rain = 0
KMC4 170814Z 04002KT 08/04 A3001 RMK A01 T00840044  RH  076%=      5-min Rain = 0
KMC4 170815Z 03001KT 08/04 A3001 RMK A01 T00840044  RH  076%=      5-min Rain = 0
KMC4 170816Z 02000KT 08/04 A3001 RMK A01 T00840043  RH  076%=      5-min Rain = 0
KMC4 170817Z 00000KT 08/04 A3001 RMK A01 T00830043  RH  076%=      5-min Rain = 0
KMC4 170818Z 10001KT 08/04 A3001 RMK A01 T00820043  RH  077%=      5-min Rain = 0
KMC4 170819Z 12002KT 08/04 A3001 RMK A01 T00810043  RH  077%=      5-min Rain = 0
KMC4 170820Z 11001KT 08/04 A3001 RMK A01 T00810042  RH  077%=      5-min Rain = 0
KMC4 170821Z 04000KT 08/04 A3001 RMK A01 T00790042  RH  077%=      5-min Rain = 0
KMC4 170822Z 04001KT 08/04 A3001 RMK A01 T00790043  RH  078%=      5-min Rain = 0
KMC4 170823Z 05001KT 08/04 A3001 RMK A01 T00790042  RH  078%=      5-min Rain = 0
KMC4 170824Z 03002KT 08/04 A3001 RMK A01 T00770041  RH  078%=      5-min Rain = 0
KMC4 170825Z 04002KT 08/04 A3001 RMK A01 T00760041  RH  078%=      5-min Rain = 0
KMC4 170826Z 04002KT 08/04 A3001 RMK A01 T00750041  RH  079%=      5-min Rain = 0
KMC4 170827Z 03002KT 07/04 A3001 RMK A01 T00740041  RH  079%=      5-min Rain = 0
KMC4 170828Z 05002KT 08/04 A3001 RMK A01 T00750041  RH  079%=      5-min Rain = 0
KMC4 170829Z 07002KT 07/04 A3001 RMK A01 T00740041  RH  079%=      5-min Rain = 0
KMC4 170830Z 06001KT 07/04 A3001 RMK A01 T00740040  RH  079%=      5-min Rain = 0
KMC4 170831Z 05002KT 07/04 A3001 RMK A01 T00730040  RH  079%=      5-min Rain = 0
KMC4 170832Z 04002KT 07/04 A3001 RMK A01 T00720039  RH  080%=      5-min Rain = 0
KMC4 170833Z 04002KT 07/04 A3001 RMK A01 T00700039  RH  080%=      5-min Rain = 0
KMC4 170834Z 04002KT 07/04 A3001 RMK A01 T00690038  RH  081%=      5-min Rain = 0
KMC4 170835Z 05002KT 07/04 A3001 RMK A01 T00680038  RH  081%=      5-min Rain = 0
KMC4 170836Z 05002KT 07/04 A3001 RMK A01 T00680039  RH  082%=      5-min Rain = 0
KMC4 170837Z 06002KT 07/04 A3001 RMK A01 T00680039  RH  082%=      5-min Rain = 0
KMC4 170838Z 07002KT 07/04 A3001 RMK A01 T00680039  RH  081%=      5-min Rain = 0
KMC4 170839Z 07002KT 07/04 A3001 RMK A01 T00680039  RH  081%=      5-min Rain = 0
KMC4 170840Z 07003KT 07/04 A3001 RMK A01 T00680038  RH  081%=      5-min Rain = 0
KMC4 170841Z 08003KT 07/04 A3001 RMK A01 T00670038  RH  082%=      5-min Rain = 0
KMC4 170842Z 08003KT 07/04 A3001 RMK A01 T00670038  RH  082%=      5-min Rain = 0
KMC4 170843Z 08003KT 07/04 A3001 RMK A01 T00670038  RH  082%=      5-min Rain = 0
KMC4 170844Z 07002KT 07/04 A3001 RMK A01 T00670038  RH  082%=      5-min Rain = 0
KMC4 170845Z 05002KT 07/04 A3001 RMK A01 T00670039  RH  082%=      5-min Rain = 0
KMC4 170846Z 03002KT 07/04 A3001 RMK A01 T00690041  RH  082%=      5-min Rain = 0
KMC4 170847Z 04002KT 07/04 A3001 RMK A01 T00700040  RH  081%=      5-min Rain = 0
KMC4 170848Z 06003KT 07/04 A3001 RMK A01 T00700040  RH  081%=      5-min Rain = 0
KMC4 170849Z 06003KT 07/04 A3001 RMK A01 T00710040  RH  081%=      5-min Rain = 0
KMC4 170850Z 06003KT 07/04 A3001 RMK A01 T00710039  RH  080%=      5-min Rain = 0
KMC4 170851Z 06003KT 07/04 A3001 RMK A01 T00700039  RH  080%=      5-min Rain = 0
KMC4 170852Z 09003KT 07/04 A3001 RMK A01 T00700039  RH  081%=      5-min Rain = 0
KMC4 170853Z 10003KT 07/04 A3001 RMK A01 T00700040  RH  081%=      5-min Rain = 0
KMC4 170854Z 10004KT 07/04 A3001 RMK A01 T00700040  RH  081%=      5-min Rain = 0
KMC4 170855Z 11004KT 07/04 A3001 RMK A01 T00710040  RH  081%=      5-min Rain = 0
KMC4 170856Z 12004KT 07/04 A3001 RMK A01 T00720041  RH  081%=      5-min Rain = 0
KMC4 170857Z 12004KT 07/04 A3001 RMK A01 T00730041  RH  080%=      5-min Rain = 0
KMC4 170858Z 12004KT 07/04 A3001 RMK A01 T00730040  RH  079%=      5-min Rain = 0
KMC4 170859Z 12004KT 07/04 A3001 RMK A01 T00700037  RH  079%=      5-min Rain = 0
KMC4 170900Z 13003KT 07/04 A3001 RMK A01 T00670036  RH  081%=      5-min Rain = 0
KMC4 170901Z 12003KT 07/04 A3001 RMK A01 T00650036  RH  082%=      5-min Rain = 0
KMC4 170902Z 11003KT 06/04 A3001 RMK A01 T00640037  RH  083%=      5-min Rain = 0
KMC4 170903Z 11003KT 06/04 A3001 RMK A01 T00640038  RH  084%=      5-min Rain = 0
KMC4 170904Z 10001KT 06/04 A3001 RMK A01 T00640038  RH  083%=      5-min Rain = 0
KMC4 170905Z 10002KT 07/04 A3001 RMK A01 T00650039  RH  084%=      5-min Rain = 0
KMC4 170906Z 10001KT 06/04 A3001 RMK A01 T00640039  RH  084%=      5-min Rain = 0
KMC4 170907Z 10002KT 06/04 A3001 RMK A01 T00640039  RH  084%=      5-min Rain = 0
KMC4 170908Z 10002KT 07/04 A3001 RMK A01 T00650040  RH  084%=      5-min Rain = 0
KMC4 170909Z 10002KT 07/04 A3001 RMK A01 T00650039  RH  084%=      5-min Rain = 0
KMC4 170910Z 10001KT 07/04 A3001 RMK A01 T00650039  RH  084%=      5-min Rain = 0
KMC4 170911Z 10001KT 07/04 A3001 RMK A01 T00650039  RH  084%=      5-min Rain = 0
KMC4 170912Z 09001KT 07/04 A3001 RMK A01 T00650039  RH  083%=      5-min Rain = 0
KMC4 170913Z 08001KT 07/04 A3001 RMK A01 T00650039  RH  083%=      5-min Rain = 0
KMC4 170914Z 08001KT 06/04 A3001 RMK A01 T00640038  RH  084%=      5-min Rain = 0
KMC4 170915Z 00000KT 06/04 A3001 RMK A01 T00630038  RH  084%=      5-min Rain = 0
KMC4 170916Z 05000KT 06/04 A3001 RMK A01 T00630038  RH  084%=      5-min Rain = 0
KMC4 170917Z 05001KT 06/04 A3001 RMK A01 T00630039  RH  085%=      5-min Rain = 0
KMC4 170918Z 04001KT 06/04 A3001 RMK A01 T00630039  RH  085%=      5-min Rain = 0
KMC4 170919Z 04001KT 06/04 A3001 RMK A01 T00620038  RH  084%=      5-min Rain = 0
KMC4 170920Z 06001KT 06/04 A3001 RMK A01 T00620038  RH  084%=      5-min Rain = 0
KMC4 170921Z 06001KT 06/04 A30 RMK A01 T00630038  RH  084%=      5-min Rain = 0
KMC4 170922Z 08001KT 06/04 A30 RMK A01 T00620038  RH  084%=      5-min Rain = 0
KMC4 170923Z 11001KT 06/04 A30 RMK A01 T00620038  RH  084%=      5-min Rain = 0
KMC4 170924Z 12001KT 06/04 A30 RMK A01 T00620038  RH  085%=      5-min Rain = 0
KMC4 170925Z 13001KT 06/04 A3001 RMK A01 T00610037  RH  085%=      5-min Rain = 0
KMC4 170926Z 13001KT 06/04 A3001 RMK A01 T00610037  RH  085%=      5-min Rain = 0
KMC4 170927Z 13001KT 06/04 A3001 RMK A01 T00600036  RH  085%=      5-min Rain = 0
KMC4 170928Z 14001KT 06/04 A30 RMK A01 T00600036  RH  085%=      5-min Rain = 0
KMC4 170929Z 16001KT 06/04 A30 RMK A01 T00590036  RH  085%=      5-min Rain = 0
KMC4 170930Z 17001KT 06/04 A3001 RMK A01 T00590036  RH  085%=      5-min Rain = 0
KMC4 170931Z 16001KT 06/04 A30 RMK A01 T00590037  RH  086%=      5-min Rain = 0
KMC4 170932Z 16001KT 06/04 A30 RMK A01 T00580036  RH  086%=      5-min Rain = 0
KMC4 170933Z 15001KT 06/04 A30 RMK A01 T00580036  RH  086%=      5-min Rain = 0
KMC4 170934Z 15002KT 06/04 A30 RMK A01 T00570035  RH  086%=      5-min Rain = 0
KMC4 170935Z 16000KT 06/04 A30 RMK A01 T00570036  RH  086%=      5-min Rain = 0
KMC4 170936Z 15001KT 06/04 A30 RMK A01 T00570036  RH  087%=      5-min Rain = 0
KMC4 170937Z 15001KT 06/04 A30 RMK A01 T00570037  RH  087%=      5-min Rain = 0
KMC4 170938Z 14002KT 06/04 A30 RMK A01 T00570036  RH  087%=      5-min Rain = 0
KMC4 170939Z 14002KT 06/04 A30 RMK A01 T00560037  RH  087%=      5-min Rain = 0
KMC4 170940Z 15003KT 06/04 A30 RMK A01 T00570037  RH  087%=      5-min Rain = 0
KMC4 170941Z 14002KT 06/04 A30 RMK A01 T00560037  RH  087%=      5-min Rain = 0
KMC4 170942Z 14002KT 06/04 A30 RMK A01 T00560037  RH  087%=      5-min Rain = 0
KMC4 170943Z 13002KT 06/04 A30 RMK A01 T00550035  RH  087%=      5-min Rain = 0
KMC4 170944Z 12002KT 06/04 A30 RMK A01 T00550036  RH  087%=      5-min Rain = 0
KMC4 170945Z 09000KT 06/04 A30 RMK A01 T00550036  RH  088%=      5-min Rain = 0
KMC4 170946Z 11000KT 06/04 A3001 RMK A01 T00550036  RH  088%=      5-min Rain = 0
KMC4 170947Z 00000KT 06/04 A3001 RMK A01 T00550036  RH  088%=      5-min Rain = 0
KMC4 170948Z 00000KT 06/04 A3001 RMK A01 T00550036  RH  088%=      5-min Rain = 0
KMC4 170949Z 00000KT 06/04 A3001 RMK A01 T00550036  RH  088%=      5-min Rain = 0
KMC4 170950Z 00000KT 06/04 A3001 RMK A01 T00550036  RH  087%=      5-min Rain = 0
KMC4 170951Z 12000KT 06/04 A3001 RMK A01 T00550035  RH  087%=      5-min Rain = 0
KMC4 170952Z 12000KT 06/04 A3001 RMK A01 T00550036  RH  088%=      5-min Rain = 0
KMC4 170953Z 10000KT 06/04 A3001 RMK A01 T00560037  RH  087%=      5-min Rain = 0
KMC4 170954Z 00000KT 06/04 A3001 RMK A01 T00570036  RH  087%=      5-min Rain = 0
KMC4 170955Z 00000KT 06/04 A3001 RMK A01 T00570036  RH  086%=      5-min Rain = 0
KMC4 170956Z 00000KT 06/04 A30 RMK A01 T00560035  RH  086%=      5-min Rain = 0
KMC4 170957Z 15000KT 06/04 A30 RMK A01 T00560035  RH  087%=      5-min Rain = 0
KMC4 170958Z 00000KT 06/04 A30 RMK A01 T00560036  RH  087%=      5-min Rain = 0
KMC4 170959Z 12000KT 06/04 A30 RMK A01 T00560036  RH  087%=      5-min Rain = 0
KMC4 171000Z 15001KT 06/04 A30 RMK A01 T00560036  RH  087%=      5-min Rain = 0
KMC4 171001Z 12000KT 06/04 A30 RMK A01 T00570036  RH  087%=      5-min Rain = 0
KMC4 171002Z 11000KT 06/04 A30 RMK A01 T00570038  RH  087%=      5-min Rain = 0
KMC4 171003Z 00000KT 06/04 A3001 RMK A01 T00580037  RH  086%=      5-min Rain = 0
KMC4 171004Z 00000KT 06/04 A3001 RMK A01 T00580037  RH  086%=      5-min Rain = 0
KMC4 171005Z 00000KT 06/04 A3001 RMK A01 T00590037  RH  086%=      5-min Rain = 0
KMC4 171006Z 00000KT 06/04 A3001 RMK A01 T00590037  RH  086%=      5-min Rain = 0
KMC4 171007Z 21000KT 06/04 A3001 RMK A01 T00590036  RH  086%=      5-min Rain = 0
KMC4 171008Z 21001KT 06/04 A3001 RMK A01 T00580036  RH  086%=      5-min Rain = 0
KMC4 171009Z 21001KT 06/04 A3001 RMK A01 T00580035  RH  086%=      5-min Rain = 0
KMC4 171010Z 20001KT 06/04 A3001 RMK A01 T00570035  RH  086%=      5-min Rain = 0
KMC4 171011Z 19001KT 06/04 A3001 RMK A01 T00570035  RH  086%=      5-min Rain = 0
KMC4 171012Z 19002KT 06/04 A3001 RMK A01 T00570036  RH  086%=      5-min Rain = 0
KMC4 171013Z 19002KT 06/04 A3001 RMK A01 T00580037  RH  087%=      5-min Rain = 0
KMC4 171014Z 21001KT 06/04 A3001 RMK A01 T00590039  RH  087%=      5-min Rain = 0
KMC4 171015Z 23000KT 06/04 A3001 RMK A01 T00600037  RH  086%=      5-min Rain = 0
KMC4 171016Z 24001KT 06/04 A3001 RMK A01 T00600037  RH  085%=      5-min Rain = 0
KMC4 171017Z 22000KT 06/04 A3001 RMK A01 T00590036  RH  085%=      5-min Rain = 0
KMC4 171018Z 00000KT 06/04 A3001 RMK A01 T00600037  RH  085%=      5-min Rain = 0
KMC4 171019Z 00000KT 06/04 A3001 RMK A01 T00610039  RH  086%=      5-min Rain = 0
KMC4 171020Z 00000KT 06/04 A3001 RMK A01 T00620039  RH  085%=      5-min Rain = 0
KMC4 171021Z 00000KT 06/04 A3001 RMK A01 T00630038  RH  084%=      5-min Rain = 0
KMC4 171022Z 00000KT 06/04 A3001 RMK A01 T00620037  RH  084%=      5-min Rain = 0
KMC4 171023Z 00000KT 06/04 A3001 RMK A01 T00610036  RH  084%=      5-min Rain = 0
KMC4 171024Z 00000KT 06/04 A3001 RMK A01 T00600035  RH  084%=      5-min Rain = 0
KMC4 171025Z 18000KT 06/04 A3002 RMK A01 T00590036  RH  085%=      5-min Rain = 0
KMC4 171026Z 18000KT 06/04 A3002 RMK A01 T00590036  RH  085%=      5-min Rain = 0
KMC4 171027Z 00000KT 06/04 A3002 RMK A01 T00580035  RH  085%=      5-min Rain = 0
KMC4 171028Z 03000KT 06/04 A3002 RMK A01 T00590036  RH  086%=      5-min Rain = 0
KMC4 171029Z 02000KT 06/04 A3002 RMK A01 T00590036  RH  085%=      5-min Rain = 0
KMC4 171030Z 00000KT 06/04 A3002 RMK A01 T00600039  RH  086%=      5-min Rain = 0
KMC4 171031Z 00000KT 06/04 A3002 RMK A01 T00610038  RH  085%=      5-min Rain = 0
KMC4 171032Z 00000KT 06/04 A3002 RMK A01 T00610037  RH  085%=      5-min Rain = 0
KMC4 171033Z 00000KT 06/04 A3002 RMK A01 T00610037  RH  085%=      5-min Rain = 0
KMC4 171034Z 00000KT 06/04 A3002 RMK A01 T00600036  RH  085%=      5-min Rain = 0
KMC4 171035Z 03000KT 06/04 A3002 RMK A01 T00600036  RH  085%=      5-min Rain = 0
KMC4 171036Z 02001KT 06/04 A3002 RMK A01 T00590036  RH  085%=      5-min Rain = 0
KMC4 171037Z 36000KT 06/04 A3002 RMK A01 T00600037  RH  085%=      5-min Rain = 0
KMC4 171038Z 00000KT 06/04 A3002 RMK A01 T00600036  RH  085%=      5-min Rain = 0
KMC4 171039Z 00000KT 06/04 A3002 RMK A01 T00600036  RH  085%=      5-min Rain = 0
KMC4 171040Z 00000KT 06/04 A3001 RMK A01 T00590035  RH  085%=      5-min Rain = 0
KMC4 171041Z 00000KT 06/04 A3001 RMK A01 T00580035  RH  085%=      5-min Rain = 0
KMC4 171042Z 00001KT 06/03 A3001 RMK A01 T00570034  RH  085%=      5-min Rain = 0
KMC4 171043Z 00002KT 06/03 A3001 RMK A01 T00550033  RH  085%=      5-min Rain = 0
KMC4 171044Z 35001KT 06/03 A3001 RMK A01 T00550033  RH  086%=      5-min Rain = 0
KMC4 171045Z 01001KT 06/04 A3001 RMK A01 T00550035  RH  087%=      5-min Rain = 0
KMC4 171046Z 01001KT 06/04 A3001 RMK A01 T00550035  RH  087%=      5-min Rain = 0
KMC4 171047Z 01001KT 06/03 A3001 RMK A01 T00550034  RH  086%=      5-min Rain = 0
KMC4 171048Z 01001KT 05/03 A3001 RMK A01 T00540034  RH  087%=      5-min Rain = 0
KMC4 171049Z 36002KT 06/04 A3001 RMK A01 T00550035  RH  087%=      5-min Rain = 0
KMC4 171050Z 34002KT 06/03 A3001 RMK A01 T00550034  RH  086%=      5-min Rain = 0
KMC4 171051Z 35002KT 06/03 A3001 RMK A01 T00550034  RH  086%=      5-min Rain = 0
KMC4 171052Z 34002KT 06/03 A3002 RMK A01 T00550033  RH  086%=      5-min Rain = 0
KMC4 171053Z 34002KT 05/03 A3002 RMK A01 T00540033  RH  086%=      5-min Rain = 0
KMC4 171054Z 34002KT 05/03 A3002 RMK A01 T00540033  RH  086%=      5-min Rain = 0
KMC4 171055Z 35002KT 06/03 A3002 RMK A01 T00550033  RH  086%=      5-min Rain = 0
KMC4 171056Z 00002KT 06/03 A3002 RMK A01 T00560034  RH  086%=      5-min Rain = 0
KMC4 171057Z 01002KT 06/03 A3002 RMK A01 T00560033  RH  086%=      5-min Rain = 0
KMC4 171058Z 36001KT 06/03 A3002 RMK A01 T00550033  RH  086%=      5-min Rain = 0
KMC4 171059Z 01000KT 06/03 A3001 RMK A01 T00550033  RH  086%=      5-min Rain = 0
KMC4 171100Z 00000KT 06/03 A3001 RMK A01 T00550034  RH  086%=      5-min Rain = 0
KMC4 171101Z 35000KT 06/03 A3001 RMK A01 T00550034  RH  086%=      5-min Rain = 0
KMC4 171102Z 35000KT 06/03 A3001 RMK A01 T00550034  RH  086%=      5-min Rain = 0
KMC4 171103Z 35001KT 06/03 A3001 RMK A01 T00550034  RH  086%=      5-min Rain = 0
KMC4 171104Z 36001KT 06/04 A3001 RMK A01 T00570035  RH  086%=      5-min Rain = 0
KMC4 171105Z 00002KT 06/04 A3001 RMK A01 T00590036  RH  085%=      5-min Rain = 0
KMC4 171106Z 00002KT 06/04 A3001 RMK A01 T00590035  RH  085%=      5-min Rain = 0
KMC4 171107Z 36002KT 06/03 A3001 RMK A01 T00580034  RH  084%=      5-min Rain = 0
KMC4 171108Z 35003KT 06/03 A3002 RMK A01 T00580034  RH  085%=      5-min Rain = 0
KMC4 171109Z 35003KT 06/03 A3002 RMK A01 T00570034  RH  085%=      5-min Rain = 0
KMC4 171110Z 35003KT 06/03 A3002 RMK A01 T00570034  RH  085%=      5-min Rain = 0
KMC4 171111Z 35003KT 06/03 A3002 RMK A01 T00570034  RH  085%=      5-min Rain = 0
KMC4 171112Z 35003KT 06/04 A3002 RMK A01 T00590035  RH  085%=      5-min Rain = 0
KMC4 171113Z 35003KT 06/04 A3002 RMK A01 T00600035  RH  084%=      5-min Rain = 0
KMC4 171114Z 36002KT 06/03 A3002 RMK A01 T00600034  RH  083%=      5-min Rain = 0
KMC4 171115Z 00002KT 06/03 A3002 RMK A01 T00580031  RH  083%=      5-min Rain = 0
KMC4 171116Z 00002KT 06/03 A3002 RMK A01 T00560030  RH  083%=      5-min Rain = 0
KMC4 171117Z 00002KT 06/03 A3002 RMK A01 T00550031  RH  085%=      5-min Rain = 0
KMC4 171118Z 00002KT 05/03 A3002 RMK A01 T00540031  RH  085%=      5-min Rain = 0
KMC4 171119Z 00002KT 05/03 A3002 RMK A01 T00540032  RH  085%=      5-min Rain = 0
KMC4 171120Z 35002KT 05/03 A3002 RMK A01 T00540032  RH  085%=      5-min Rain = 0
KMC4 171121Z 36001KT 05/03 A3002 RMK A01 T00540031  RH  085%=      5-min Rain = 0
KMC4 171122Z 03002KT 05/03 A3002 RMK A01 T00530031  RH  085%=      5-min Rain = 0
KMC4 171123Z 03002KT 05/03 A3002 RMK A01 T00520030  RH  085%=      5-min Rain = 0
KMC4 171124Z 36002KT 05/03 A3002 RMK A01 T00520030  RH  086%=      5-min Rain = 0
KMC4 171125Z 34001KT 05/03 A3002 RMK A01 T00510030  RH  086%=      5-min Rain = 0
KMC4 171126Z 34000KT 05/03 A3002 RMK A01 T00510031  RH  087%=      5-min Rain = 0
KMC4 171127Z 35000KT 05/03 A3002 RMK A01 T00510031  RH  087%=      5-min Rain = 0
KMC4 171128Z 00000KT 05/03 A3002 RMK A01 T00510031  RH  087%=      5-min Rain = 0
KMC4 171129Z 00000KT 05/03 A3002 RMK A01 T00520032  RH  087%=      5-min Rain = 0
KMC4 171130Z 00000KT 05/03 A3002 RMK A01 T00520031  RH  086%=      5-min Rain = 0
KMC4 171131Z 00000KT 05/03 A3002 RMK A01 T00520031  RH  086%=      5-min Rain = 0
KMC4 171132Z 00000KT 05/03 A3002 RMK A01 T00520031  RH  086%=      5-min Rain = 0
KMC4 171133Z 00000KT 05/03 A3002 RMK A01 T00520031  RH  086%=      5-min Rain = 0
KMC4 171134Z 00000KT 05/03 A3002 RMK A01 T00520031  RH  086%=      5-min Rain = 0
KMC4 171135Z 00000KT 05/03 A3002 RMK A01 T00520031  RH  086%=      5-min Rain = 0
KMC4 171136Z 00000KT 05/03 A3002 RMK A01 T00510030  RH  086%=      5-min Rain = 0
KMC4 171137Z 17000KT 05/03 A3002 RMK A01 T00510030  RH  086%=      5-min Rain = 0
KMC4 171138Z 19001KT 05/03 A3002 RMK A01 T00510031  RH  087%=      5-min Rain = 0
KMC4 171139Z 22001KT 05/03 A3002 RMK A01 T00510031  RH  087%=      5-min Rain = 0
KMC4 171140Z 23001KT 05/03 A3002 RMK A01 T00520031  RH  087%=      5-min Rain = 0
KMC4 171141Z 23001KT 05/03 A3002 RMK A01 T00520031  RH  087%=      5-min Rain = 0
KMC4 171142Z 22001KT 05/03 A3002 RMK A01 T00510030  RH  086%=      5-min Rain = 0
KMC4 171143Z 16001KT 05/03 A3002 RMK A01 T00510031  RH  087%=      5-min Rain = 0
KMC4 171144Z 14000KT 05/03 A3002 RMK A01 T00520033  RH  087%=      5-min Rain = 0
KMC4 171145Z 18000KT 05/03 A3002 RMK A01 T00530033  RH  087%=      5-min Rain = 0
KMC4 171146Z 19002KT 05/03 A3002 RMK A01 T00530031  RH  086%=      5-min Rain = 0
KMC4 171147Z 19002KT 05/03 A3002 RMK A01 T00520030  RH  086%=      5-min Rain = 0
KMC4 171148Z 19003KT 05/03 A3002 RMK A01 T00520032  RH  087%=      5-min Rain = 0
KMC4 171149Z 19003KT 05/03 A3002 RMK A01 T00530032  RH  087%=      5-min Rain = 0
KMC4 171150Z 20003KT 05/03 A3002 RMK A01 T00530033  RH  087%=      5-min Rain = 0
KMC4 171151Z 20003KT 05/03 A3003 RMK A01 T00540033  RH  086%=      5-min Rain = 0
KMC4 171152Z 20003KT 05/03 A3003 RMK A01 T00540033  RH  086%=      5-min Rain = 0
KMC4 171153Z 20004KT 05/03 A3003 RMK A01 T00540033  RH  086%=      5-min Rain = 0
KMC4 171154Z 21004KT 06/03 A3003 RMK A01 T00550034  RH  086%=      5-min Rain = 0
KMC4 171155Z 20005KT 06/03 A3003 RMK A01 T00550033  RH  086%=      5-min Rain = 0
KMC4 171156Z 19005KT 06/03 A3003 RMK A01 T00560034  RH  086%=      5-min Rain = 0
KMC4 171157Z 19005KT 06/04 A3003 RMK A01 T00570035  RH  086%=      5-min Rain = 0
KMC4 171158Z 20004KT 06/03 A3003 RMK A01 T00570034  RH  085%=      5-min Rain = 0
KMC4 171159Z 20004KT 06/03 A3003 RMK A01 T00570033  RH  085%=      5-min Rain = 0
KMC4 171200Z 21003KT 06/03 A3003 RMK A01 T00570034  RH  085%=      5-min Rain = 0
KMC4 171201Z 21003KT 06/04 A3003 RMK A01 T00570035  RH  086%=      5-min Rain = 0
KMC4 171202Z 21002KT 06/04 A3003 RMK A01 T00570035  RH  086%=      5-min Rain = 0
KMC4 171203Z 21001KT 06/04 A3003 RMK A01 T00570035  RH  086%=      5-min Rain = 0
KMC4 171204Z 19002KT 06/04 A3003 RMK A01 T00580035  RH  085%=      5-min Rain = 0
KMC4 171205Z 19002KT 06/04 A3003 RMK A01 T00580036  RH  086%=      5-min Rain = 0
KMC4 171206Z 18001KT 06/04 A3003 RMK A01 T00580036  RH  086%=      5-min Rain = 0
KMC4 171207Z 17001KT 06/04 A3003 RMK A01 T00590037  RH  086%=      5-min Rain = 0
KMC4 171208Z 19001KT 06/04 A3003 RMK A01 T00600037  RH  085%=      5-min Rain = 0
KMC4 171209Z 19001KT 06/04 A3003 RMK A01 T00600036  RH  085%=      5-min Rain = 0
KMC4 171210Z 22001KT 06/04 A3003 RMK A01 T00600037  RH  085%=      5-min Rain = 0
KMC4 171211Z 22001KT 06/04 A3003 RMK A01 T00600037  RH  085%=      5-min Rain = 0
KMC4 171212Z 22001KT 06/04 A3003 RMK A01 T00610038  RH  085%=      5-min Rain = 0
KMC4 171213Z 23001KT 06/04 A3003 RMK A01 T00610038  RH  085%=      5-min Rain = 0
KMC4 171214Z 22001KT 06/04 A3003 RMK A01 T00620038  RH  085%=      5-min Rain = 0
KMC4 171215Z 20002KT 06/04 A3003 RMK A01 T00620038  RH  085%=      5-min Rain = 0
KMC4 171216Z 18002KT 06/04 A3003 RMK A01 T00620039  RH  085%=      5-min Rain = 0
KMC4 171217Z 19002KT 06/04 A3003 RMK A01 T00620039  RH  085%=      5-min Rain = 0
KMC4 171218Z 19002KT 06/04 A3003 RMK A01 T00620038  RH  085%=      5-min Rain = 0
KMC4 171219Z 19001KT 06/04 A3003 RMK A01 T00620038  RH  085%=      5-min Rain = 0
KMC4 171220Z 20001KT 06/04 A3004 RMK A01 T00630039  RH  085%=      5-min Rain = 0
KMC4 171221Z 19001KT 06/04 A3004 RMK A01 T00620038  RH  085%=      5-min Rain = 0
KMC4 171222Z 20000KT 06/04 A3004 RMK A01 T00620037  RH  084%=      5-min Rain = 0
KMC4 171223Z 19000KT 06/04 A3004 RMK A01 T00610036  RH  084%=      5-min Rain = 0
KMC4 171224Z 00000KT 06/04 A3004 RMK A01 T00600035  RH  084%=      5-min Rain = 0
KMC4 171225Z 00000KT 06/04 A3004 RMK A01 T00590036  RH  085%=      5-min Rain = 0
KMC4 171226Z 00000KT 06/04 A3004 RMK A01 T00590036  RH  085%=      5-min Rain = 0
KMC4 171227Z 00000KT 06/04 A3004 RMK A01 T00590036  RH  085%=      5-min Rain = 0
KMC4 171228Z 00000KT 06/04 A3004 RMK A01 T00580035  RH  085%=      5-min Rain = 0
KMC4 171229Z 00000KT 06/03 A3004 RMK A01 T00560032  RH  084%=      5-min Rain = 0
KMC4 171230Z 02000KT 05/03 A3004 RMK A01 T00540032  RH  086%=      5-min Rain = 0
KMC4 171231Z 02000KT 05/03 A3004 RMK A01 T00540033  RH  087%=      5-min Rain = 0
KMC4 171232Z 00001KT 05/03 A3004 RMK A01 T00540032  RH  086%=      5-min Rain = 0
KMC4 171233Z 36002KT 05/03 A3004 RMK A01 T00530034  RH  087%=      5-min Rain = 0
KMC4 171234Z 00003KT 06/04 A3004 RMK A01 T00550037  RH  088%=      5-min Rain = 0
KMC4 171235Z 00003KT 06/04 A3004 RMK A01 T00560037  RH  087%=      5-min Rain = 0
KMC4 171236Z 34004KT 06/04 A3004 RMK A01 T00570036  RH  086%=      5-min Rain = 0
KMC4 171237Z 34004KT 06/04 A3005 RMK A01 T00580036  RH  086%=      5-min Rain = 0
KMC4 171238Z 33004KT 06/04 A3005 RMK A01 T00590036  RH  085%=      5-min Rain = 0
KMC4 171239Z 32004KT 06/04 A3005 RMK A01 T00590036  RH  085%=      5-min Rain = 0
KMC4 171240Z 32005KT 06/04 A3005 RMK A01 T00600036  RH  085%=      5-min Rain = 0
KMC4 171241Z 31005KT 06/04 A3005 RMK A01 T00600035  RH  084%=      5-min Rain = 0
KMC4 171242Z 30005KT 06/03 A3004 RMK A01 T00590034  RH  084%=      5-min Rain = 0
KMC4 171243Z 31005KT 06/03 A3004 RMK A01 T00580033  RH  084%=      5-min Rain = 0
KMC4 171244Z 31005KT 06/03 A3004 RMK A01 T00570033  RH  085%=      5-min Rain = 0
KMC4 171245Z 32005KT 06/03 A3004 RMK A01 T00560033  RH  085%=      5-min Rain = 0
KMC4 171246Z 31005KT 06/03 A3005 RMK A01 T00560034  RH  085%=      5-min Rain = 0
KMC4 171247Z 31005KT 06/03 A3005 RMK A01 T00570034  RH  085%=      5-min Rain = 0
KMC4 171248Z 31005KT 06/03 A3005 RMK A01 T00570034  RH  085%=      5-min Rain = 0
KMC4 171249Z 31005KT 06/03 A3005 RMK A01 T00570034  RH  085%=      5-min Rain = 0
KMC4 171250Z 31006KT 06/03 A3005 RMK A01 T00570034  RH  085%=      5-min Rain = 0
KMC4 171251Z 30006KT 06/04 A3005 RMK A01 T00570035  RH  086%=      5-min Rain = 0
KMC4 171252Z 30007KT 06/04 A3005 RMK A01 T00580036  RH  086%=      5-min Rain = 0
KMC4 171253Z 29007KT 06/04 A3004 RMK A01 T00590038  RH  086%=      5-min Rain = 0
KMC4 171254Z 29008KT 06/04 A3004 RMK A01 T00610039  RH  085%=      5-min Rain = 0
KMC4 171255Z 29008KT 06/04 A3005 RMK A01 T00620038  RH  084%=      5-min Rain = 0
KMC4 171256Z 29008KT 06/04 A3005 RMK A01 T00630038  RH  084%=      5-min Rain = 0
KMC4 171257Z 29008KT 06/04 A3005 RMK A01 T00630037  RH  084%=      5-min Rain = 0
KMC4 171258Z 29007KT 06/04 A3005 RMK A01 T00610036  RH  084%=      5-min Rain = 0
KMC4 171259Z 29008KT 06/03 A3005 RMK A01 T00590034  RH  084%=      5-min Rain = 0
KMC4 171300Z 29008KT 06/03 A3005 RMK A01 T00580034  RH  085%=      5-min Rain = 0
KMC4 171301Z 29008KT 06/03 A3005 RMK A01 T00570034  RH  086%=      5-min Rain = 0
KMC4 171302Z 29008KT 06/04 A3005 RMK A01 T00560035  RH  086%=      5-min Rain = 0
KMC4 171303Z 29007KT 06/04 A3005 RMK A01 T00560035  RH  086%=      5-min Rain = 0
KMC4 171304Z 29008KT 06/04 A3005 RMK A01 T00550035  RH  087%=      5-min Rain = 0
KMC4 171305Z 29008KT 06/04 A3005 RMK A01 T00550035  RH  087%=      5-min Rain = 0
KMC4 171306Z 28008KT 06/04 A3005 RMK A01 T00550036  RH  088%=      5-min Rain = 0
KMC4 171307Z 28008KT 05/04 A3005 RMK A01 T00540036  RH  088%=      5-min Rain = 0
KMC4 171308Z 29008KT 05/04 A3005 RMK A01 T00540036  RH  088%=      5-min Rain = 0
KMC4 171309Z 29008KT 05/04 A3005 RMK A01 T00530036  RH  089%=      5-min Rain = 0
KMC4 171310Z 29008KT 05/04 A3005 RMK A01 T00530036  RH  089%=      5-min Rain = 0
KMC4 171311Z 29008KT 05/04 A3005 RMK A01 T00530036  RH  089%=      5-min Rain = 0
KMC4 171312Z 29008KT 05/04 A3006 RMK A01 T00530037  RH  089%=      5-min Rain = 0
KMC4 171313Z 29009KT 05/04 A3006 RMK A01 T00530037  RH  089%=      5-min Rain = 0
KMC4 171314Z 29009KT 05/04 A3006 RMK A01 T00530036  RH  089%=      5-min Rain = 0
KMC4 171315Z 29009KT 05/04 A3006 RMK A01 T00530037  RH  089%=      5-min Rain = 0
KMC4 171316Z 29009KT 05/04 A3006 RMK A01 T00530036  RH  089%=      5-min Rain = 0
KMC4 171317Z 29009KT 05/04 A3006 RMK A01 T00520036  RH  089%=      5-min Rain = 0
KMC4 171318Z 30009KT 05/04 A3006 RMK A01 T00520036  RH  089%=      5-min Rain = 0
KMC4 171319Z 30009KT 05/04 A3006 RMK A01 T00520036  RH  089%=      5-min Rain = 0
KMC4 171320Z 30009KT 05/04 A3006 RMK A01 T00520036  RH  089%=      5-min Rain = 0
KMC4 171321Z 30008KT 05/04 A3006 RMK A01 T00520036  RH  090%=      5-min Rain = 0
KMC4 171322Z 30008KT 05/04 A3006 RMK A01 T00520036  RH  090%=      5-min Rain = 0
KMC4 171323Z 30007KT 05/04 A3006 RMK A01 T00510036  RH  090%=      5-min Rain = 0
KMC4 171324Z 30007KT 05/04 A3006 RMK A01 T00510035  RH  090%=      5-min Rain = 0
KMC4 171325Z 30007KT 05/04 A3006 RMK A01 T00510036  RH  090%=      5-min Rain = 0
KMC4 171326Z 29006KT 05/04 A3006 RMK A01 T00500035  RH  090%=      5-min Rain = 0
KMC4 171327Z 29006KT 05/04 A3006 RMK A01 T00500035  RH  090%=      5-min Rain = 0
KMC4 171328Z 29007KT 05/03 A3006 RMK A01 T00490034  RH  090%=      5-min Rain = 0
KMC4 171329Z 29007KT 05/03 A3006 RMK A01 T00480034  RH  091%=      5-min Rain = 0
KMC4 171330Z 29007KT 05/03 A3006 RMK A01 T00480034  RH  091%=      5-min Rain = 0
KMC4 171331Z 29007KT 05/03 A3006 RMK A01 T00470033  RH  091%=      5-min Rain = 0
KMC4 171332Z 29007KT 05/03 A3006 RMK A01 T00470033  RH  091%=      5-min Rain = 0
KMC4 171333Z 28008KT 05/03 A3006 RMK A01 T00460033  RH  091%=      5-min Rain = 0
KMC4 171334Z 28008KT 05/03 A3007 RMK A01 T00460033  RH  091%=      5-min Rain = 0
KMC4 171335Z 28008KT 05/03 A3007 RMK A01 T00460033  RH  092%=      5-min Rain = 0
KMC4 171336Z 28007KT 05/03 A3007 RMK A01 T00460034  RH  092%=      5-min Rain = 0
KMC4 171337Z 28007KT 05/03 A3007 RMK A01 T00460034  RH  092%=      5-min Rain = 0
KMC4 171338Z 28007KT 05/03 A3007 RMK A01 T00460034  RH  092%=      5-min Rain = 0
KMC4 171339Z 28007KT 05/03 A3007 RMK A01 T00460034  RH  092%=      5-min Rain = 0
KMC4 171340Z 28008KT 05/03 A3007 RMK A01 T00460034  RH  092%=      5-min Rain = 0
KMC4 171341Z 27008KT 05/03 A3007 RMK A01 T00460034  RH  092%=      5-min Rain = 0
KMC4 171342Z 27007KT 05/03 A3007 RMK A01 T00460034  RH  092%=      5-min Rain = 0
KMC4 171343Z 28008KT 05/03 A3007 RMK A01 T00460034  RH  092%=      5-min Rain = 0
KMC4 171344Z 28008KT 05/03 A3007 RMK A01 T00460034  RH  092%=      5-min Rain = 0
KMC4 171345Z 28007KT 05/03 A3008 RMK A01 T00460034  RH  092%=      5-min Rain = 0
KMC4 171346Z 28008KT 05/03 A3008 RMK A01 T00460034  RH  092%=      5-min Rain = 0
KMC4 171347Z 29008KT 05/03 A3008 RMK A01 T00460034  RH  092%=      5-min Rain = 0
KMC4 171348Z 29009KT 05/03 A3008 RMK A01 T00460034  RH  092%=      5-min Rain = 0
KMC4 171349Z 29009KT 05/03 A3008 RMK A01 T00460034  RH  092%=      5-min Rain = 0
KMC4 171350Z 28010KT 05/03 A3008 RMK A01 T00460034  RH  092%=      5-min Rain = 0
KMC4 171351Z 29011KT 05/04 A3008 RMK A01 T00470035  RH  092%=      5-min Rain = 0
KMC4 171352Z 29010KT 05/04 A3008 RMK A01 T00470035  RH  092%=      5-min Rain = 0
KMC4 171353Z 28010KT 05/04 A3008 RMK A01 T00470035  RH  092%=      5-min Rain = 0
KMC4 171354Z 29011KT 05/04 A3008 RMK A01 T00470035  RH  092%=      5-min Rain = 0
KMC4 171355Z 28011KT 05/04 A3008 RMK A01 T00470035  RH  091%=      5-min Rain = 0
KMC4 171356Z 28009KT 05/04 A3008 RMK A01 T00480035  RH  091%=      5-min Rain = 0
KMC4 171357Z 28008KT 05/04 A3008 RMK A01 T00480035  RH  091%=      5-min Rain = 0
KMC4 171358Z 28009KT 05/04 A3008 RMK A01 T00480035  RH  091%=      5-min Rain = 0
KMC4 171359Z 28009KT 05/04 A3008 RMK A01 T00480035  RH  091%=      5-min Rain = 0
KMC4 171400Z 28008KT 05/04 A3008 RMK A01 T00490035  RH  091%=      5-min Rain = 0
KMC4 171401Z 28009KT 05/04 A3008 RMK A01 T00490036  RH  091%=      5-min Rain = 0
KMC4 171402Z 27007KT 05/04 A3008 RMK A01 T00500036  RH  091%=      5-min Rain = 0
KMC4 171403Z 27007KT 05/04 A3008 RMK A01 T00500036  RH  091%=      5-min Rain = 0
KMC4 171404Z 27007KT 05/04 A3008 RMK A01 T00500036  RH  091%=      5-min Rain = 0
KMC4 171405Z 27007KT 05/04 A3009 RMK A01 T00500036  RH  091%=      5-min Rain = 0
KMC4 171406Z 27006KT 05/04 A3009 RMK A01 T00500036  RH  091%=      5-min Rain = 0
KMC4 171407Z 27006KT 05/04 A3009 RMK A01 T00500037  RH  091%=      5-min Rain = 0
KMC4 171408Z 27006KT 05/04 A3009 RMK A01 T00500037  RH  091%=      5-min Rain = 0
KMC4 171409Z 27006KT 05/04 A3009 RMK A01 T00500037  RH  091%=      5-min Rain = 0
KMC4 171410Z 27006KT 05/04 A3009 RMK A01 T00500037  RH  091%=      5-min Rain = 0
KMC4 171411Z 27005KT 05/04 A3009 RMK A01 T00500036  RH  091%=      5-min Rain = 0
KMC4 171412Z 26005KT 05/04 A3009 RMK A01 T00500037  RH  091%=      5-min Rain = 0
KMC4 171413Z 27005KT 05/04 A301 RMK A01 T00500037  RH  091%=      5-min Rain = 0
KMC4 171414Z 27005KT 05/04 A301 RMK A01 T00500037  RH  091%=      5-min Rain = 0
KMC4 171415Z 26005KT 05/04 A301 RMK A01 T00500037  RH  091%=      5-min Rain = 0
KMC4 171416Z 27005KT 05/04 A301 RMK A01 T00500037  RH  091%=      5-min Rain = 0
KMC4 171417Z 27004KT 05/04 A301 RMK A01 T00500037  RH  091%=      5-min Rain = 0
KMC4 171418Z 27003KT 05/04 A301 RMK A01 T00500037  RH  091%=      5-min Rain = 0
KMC4 171419Z 26003KT 05/04 A301 RMK A01 T00510037  RH  091%=      5-min Rain = 0
KMC4 171420Z 28004KT 05/04 A301 RMK A01 T00510037  RH  091%=      5-min Rain = 0
KMC4 171421Z 27005KT 05/04 A301 RMK A01 T00520038  RH  091%=      5-min Rain = 0
KMC4 171422Z 28006KT 05/04 A301 RMK A01 T00530039  RH  091%=      5-min Rain = 0
KMC4 171423Z 27006KT 06/04 A301 RMK A01 T00550039  RH  090%=      5-min Rain = 0
KMC4 171424Z 27006KT 06/04 A301 RMK A01 T00550039  RH  089%=      5-min Rain = 0
KMC4 171425Z 27006KT 06/04 A3011 RMK A01 T00560039  RH  089%=      5-min Rain = 0
KMC4 171426Z 27006KT 06/04 A3011 RMK A01 T00570039  RH  089%=      5-min Rain = 0
KMC4 171427Z 26007KT 06/04 A3011 RMK A01 T00580040  RH  088%=      5-min Rain = 0
KMC4 171428Z 27007KT 06/04 A3011 RMK A01 T00580040  RH  088%=      5-min Rain = 0
KMC4 171429Z 26008KT 06/04 A3012 RMK A01 T00590040  RH  088%=      5-min Rain = 0
KMC4 171430Z 27007KT 06/04 A3012 RMK A01 T00600040  RH  087%=      5-min Rain = 0
KMC4 171431Z 26007KT 06/04 A3012 RMK A01 T00610040  RH  087%=      5-min Rain = 0
KMC4 171432Z 25007KT 06/04 A3012 RMK A01 T00620042  RH  087%=      5-min Rain = 0
KMC4 171433Z 25008KT 06/04 A3012 RMK A01 T00620041  RH  086%=      5-min Rain = 0
KMC4 171434Z 25009KT 06/04 A3012 RMK A01 T00610039  RH  086%=      5-min Rain = 0
KMC4 171435Z 25009KT 06/04 A3012 RMK A01 T00600039  RH  086%=      5-min Rain = 0
KMC4 171436Z 25009KT 06/04 A3012 RMK A01 T00600039  RH  087%=      5-min Rain = 0
KMC4 171437Z 25010KT 06/04 A3012 RMK A01 T00600039  RH  087%=      5-min Rain = 0
KMC4 171438Z 25008KT 06/04 A3013 RMK A01 T00590038  RH  087%=      5-min Rain = 0
KMC4 171439Z 25009KT 06/04 A3013 RMK A01 T00590039  RH  087%=      5-min Rain = 0
KMC4 171440Z 25009KT 06/04 A3013 RMK A01 T00600040  RH  086%=      5-min Rain = 0
KMC4 171441Z 26008KT 06/04 A3013 RMK A01 T00620040  RH  086%=      5-min Rain = 0
KMC4 171442Z 26009KT 06/04 A3013 RMK A01 T00630040  RH  085%=      5-min Rain = 0
KMC4 171443Z 26009KT 06/04 A3013 RMK A01 T00630039  RH  084%=      5-min Rain = 0
KMC4 171444Z 26009KT 06/04 A3013 RMK A01 T00630038  RH  084%=      5-min Rain = 0
KMC4 171445Z 26009KT 06/04 A3013 RMK A01 T00630038  RH  084%=      5-min Rain = 0
KMC4 171446Z 26009KT 06/04 A3014 RMK A01 T00640038  RH  084%=      5-min Rain = 0
KMC4 171447Z 26009KT 06/04 A3014 RMK A01 T00640038  RH  084%=      5-min Rain = 0
KMC4 171448Z 27008KT 06/04 A3014 RMK A01 T00640038  RH  084%=      5-min Rain = 0
KMC4 171449Z 27009KT 06/04 A3014 RMK A01 T00640038  RH  083%=      5-min Rain = 0
KMC4 171450Z 26008KT 07/04 A3014 RMK A01 T00650039  RH  083%=      5-min Rain = 0
KMC4 171451Z 26009KT 07/04 A3014 RMK A01 T00650038  RH  083%=      5-min Rain = 0
KMC4 171452Z 26010KT 07/04 A3014 RMK A01 T00660038  RH  083%=      5-min Rain = 0
KMC4 171453Z 27010KT 07/04 A3014 RMK A01 T00660038  RH  083%=      5-min Rain = 0
KMC4 171454Z 26010KT 07/04 A3014 RMK A01 T00660038  RH  082%=      5-min Rain = 0
KMC4 171455Z 25009KT 07/04 A3014 RMK A01 T00670038  RH  082%=      5-min Rain = 0
KMC4 171456Z 26009KT 07/04 A3014 RMK A01 T00670038  RH  082%=      5-min Rain = 0
KMC4 171457Z 26009KT 07/04 A3014 RMK A01 T00690040  RH  082%=      5-min Rain = 0
KMC4 171458Z 27008KT 07/04 A3014 RMK A01 T00700040  RH  081%=      5-min Rain = 0
KMC4 171459Z 28008KT 07/04 A3014 RMK A01 T00710041  RH  081%=      5-min Rain = 0
KMC4 171500Z 28008KT 07/04 A3015 RMK A01 T00720040  RH  080%=      5-min Rain = 0
KMC4 171501Z 27009KT 07/04 A3015 RMK A01 T00740040  RH  079%=      5-min Rain = 0
KMC4 171502Z 28008KT 07/04 A3015 RMK A01 T00740040  RH  079%=      5-min Rain = 0
KMC4 171503Z 28009KT 08/04 A3015 RMK A01 T00760040  RH  078%=      5-min Rain = 0
KMC4 171504Z 28009KT 08/04 A3015 RMK A01 T00770039  RH  077%=      5-min Rain = 0
KMC4 171505Z 28009KT 08/04 A3015 RMK A01 T00770039  RH  077%=      5-min Rain = 0
KMC4 171506Z 29008KT 08/04 A3015 RMK A01 T00780039  RH  076%=      5-min Rain = 0
KMC4 171507Z 29008KT 08/04 A3015 RMK A01 T00800040  RH  076%=      5-min Rain = 0
KMC4 171508Z 29008KT 08/04 A3015 RMK A01 T00810040  RH  075%=      5-min Rain = 0
KMC4 171509Z 29009KT 08/04 A3015 RMK A01 T00820041  RH  075%=      5-min Rain = 0
KMC4 171510Z 29009KT 08/04 A3015 RMK A01 T00830040  RH  074%=      5-min Rain = 0
KMC4 171511Z 29008KT 08/04 A3015 RMK A01 T00830040  RH  074%=      5-min Rain = 0
KMC4 171512Z 29008KT 09/04 A3015 RMK A01 T00850041  RH  074%=      5-min Rain = 0
KMC4 171513Z 29008KT 09/04 A3015 RMK A01 T00860040  RH  073%=      5-min Rain = 0
KMC4 171514Z 29007KT 09/04 A3015 RMK A01 T00870042  RH  074%=      5-min Rain = 0
KMC4 171515Z 29008KT 09/04 A3015 RMK A01 T00880042  RH  073%=      5-min Rain = 0
KMC4 171516Z 30007KT 09/04 A3015 RMK A01 T00900041  RH  071%=      5-min Rain = 0
KMC4 171517Z 30006KT 09/04 A3015 RMK A01 T00900040  RH  071%=      5-min Rain = 0
KMC4 171518Z 30007KT 09/04 A3015 RMK A01 T00910041  RH  071%=      5-min Rain = 0
KMC4 171519Z 29008KT 09/04 A3015 RMK A01 T00920040  RH  070%=      5-min Rain = 0
KMC4 171520Z 30009KT 09/04 A3015 RMK A01 T00930040  RH  069%=      5-min Rain = 0
KMC4 171521Z 30008KT 09/04 A3015 RMK A01 T00940040  RH  069%=      5-min Rain = 0
KMC4 171522Z 30008KT 10/04 A3015 RMK A01 T00960041  RH  068%=      5-min Rain = 0
KMC4 171523Z 30007KT 10/04 A3015 RMK A01 T00970040  RH  068%=      5-min Rain = 0
KMC4 171524Z 30007KT 10/04 A3015 RMK A01 T00980041  RH  068%=      5-min Rain = 0
KMC4 171525Z 29006KT 10/04 A3015 RMK A01 T00990040  RH  067%=      5-min Rain = 0
KMC4 171526Z 30007KT 10/04 A3015 RMK A01 T01000041  RH  067%=      5-min Rain = 0
KMC4 171527Z 31008KT 10/04 A3015 RMK A01 T01020041  RH  066%=      5-min Rain = 0
KMC4 171528Z 31010KT 11/04 A3015 RMK A01 T01060042  RH  065%=      5-min Rain = 0
KMC4 171529Z 32010KT 11/04 A3015 RMK A01 T01090039  RH  062%=      5-min Rain = 0
KMC4 171530Z 33007KT 11/04 A3015 RMK A01 T01120041  RH  061%=      5-min Rain = 0
KMC4 171531Z 34009KT 11/04 A3015 RMK A01 T01140039  RH  060%=      5-min Rain = 0
KMC4 171532Z 34009KT 12/03 A3015 RMK A01 T01170033  RH  057%=      5-min Rain = 0
KMC4 171533Z 34012G18KT 12/04 A3015 RMK A01 T01190036  RH  057%=      5-min Rain = 0
KMC4 171534Z 01010KT 12/03 A3015 RMK A01 T01210032  RH  055%=      5-min Rain = 0
KMC4 171535Z 34007G12KT 12/03 A3015 RMK A01 T01220032  RH  054%=      5-min Rain = 0
KMC4 171536Z 34011KT 12/03 A3015 RMK A01 T01240033  RH  054%=      5-min Rain = 0
KMC4 171537Z 35012KT 12/03 A3015 RMK A01 T01240032  RH  053%=      5-min Rain = 0
KMC4 171538Z 36014KT 13/03 A3015 RMK A01 T01250031  RH  053%=      5-min Rain = 0
KMC4 171539Z 35015KT 13/03 A3015 RMK A01 T01250029  RH  052%=      5-min Rain = 0
KMC4 171540Z 35013KT 12/03 A3015 RMK A01 T01240028  RH  052%=      5-min Rain = 0
KMC4 171541Z 35013KT 12/03 A3015 RMK A01 T01240028  RH  052%=      5-min Rain = 0
KMC4 171542Z 36011KT 12/03 A3015 RMK A01 T01240028  RH  052%=      5-min Rain = 0
KMC4 171543Z 00010KT 12/03 A3015 RMK A01 T01240027  RH  051%=      5-min Rain = 0
KMC4 171544Z 34012KT 13/03 A3015 RMK A01 T01250029  RH  052%=      5-min Rain = 0
KMC4 171545Z 00013KT 13/03 A3015 RMK A01 T01260029  RH  052%=      5-min Rain = 0
KMC4 171546Z 36012KT 13/03 A3015 RMK A01 T01270028  RH  051%=      5-min Rain = 0
KMC4 171547Z 35010KT 13/03 A3015 RMK A01 T01270028  RH  051%=      5-min Rain = 0
KMC4 171548Z 35009G16KT 13/03 A3015 RMK A01 T01270029  RH  051%=      5-min Rain = 0
KMC4 171549Z 36012KT 13/03 A3015 RMK A01 T01280028  RH  051%=      5-min Rain = 0
KMC4 171550Z 35013KT 13/03 A3015 RMK A01 T01280029  RH  051%=      5-min Rain = 0
KMC4 171551Z 36011KT 13/03 A3015 RMK A01 T01280028  RH  051%=      5-min Rain = 0
KMC4 171552Z 36012KT 13/03 A3016 RMK A01 T01280029  RH  051%=      5-min Rain = 0
KMC4 171553Z 01012KT 13/03 A3016 RMK A01 T01280028  RH  051%=      5-min Rain = 0
KMC4 171554Z 00010KT 13/03 A3016 RMK A01 T01280028  RH  051%=      5-min Rain = 0
KMC4 171555Z 36010KT 13/03 A3016 RMK A01 T01280028  RH  051%=      5-min Rain = 0
KMC4 171556Z 01011KT 13/03 A3016 RMK A01 T01280028  RH  050%=      5-min Rain = 0
KMC4 171557Z 36010KT 13/03 A3016 RMK A01 T01280027  RH  050%=      5-min Rain = 0
KMC4 171558Z 01012G17KT 13/03 A3016 RMK A01 T01280028  RH  051%=      5-min Rain = 0
KMC4 171559Z 00014KT 13/03 A3017 RMK A01 T01290028  RH  050%=      5-min Rain = 0
KMC4 171600Z 01012KT 13/03 A3017 RMK A01 T01290028  RH  050%=      5-min Rain = 0
KMC4 171601Z 01011KT 13/03 A3017 RMK A01 T01290028  RH  050%=      5-min Rain = 0
KMC4 171602Z 35011KT 13/03 A3017 RMK A01 T01290029  RH  051%=      5-min Rain = 0
KMC4 171603Z 36013KT 13/03 A3017 RMK A01 T01310029  RH  050%=      5-min Rain = 0
KMC4 171604Z 35013KT 13/03 A3017 RMK A01 T01300029  RH  050%=      5-min Rain = 0
KMC4 171605Z 35013G19KT 13/03 A3017 RMK A01 T01300028  RH  050%=      5-min Rain = 0
KMC4 171606Z 35011KT 13/03 A3017 RMK A01 T01300028  RH  050%=      5-min Rain = 0
KMC4 171607Z 35009KT 13/03 A3017 RMK A01 T01290028  RH  050%=      5-min Rain = 0
KMC4 171608Z 00009KT 13/03 A3018 RMK A01 T01310030  RH  050%=      5-min Rain = 0
KMC4 171609Z 35013KT 13/03 A3018 RMK A01 T01320029  RH  050%=      5-min Rain = 0
KMC4 171610Z 34012KT 13/03 A3018 RMK A01 T01310028  RH  049%=      5-min Rain = 0
KMC4 171611Z 34014KT 13/03 A3018 RMK A01 T01310029  RH  050%=      5-min Rain = 0
KMC4 171612Z 34013KT 13/03 A3018 RMK A01 T01310028  RH  050%=      5-min Rain = 0
KMC4 171613Z 35014KT 13/03 A3018 RMK A01 T01310028  RH  050%=      5-min Rain = 0
KMC4 171614Z 35012KT 13/03 A3018 RMK A01 T01310029  RH  050%=      5-min Rain = 0
KMC4 171615Z 34014KT 13/03 A3018 RMK A01 T01320028  RH  049%=      5-min Rain = 0
KMC4 171616Z 34012KT 13/03 A3018 RMK A01 T01320028  RH  049%=      5-min Rain = 0
KMC4 171617Z 35012KT 13/03 A3018 RMK A01 T01320028  RH  049%=      5-min Rain = 0
KMC4 171618Z 35012G18KT 13/03 A3018 RMK A01 T01320029  RH  049%=      5-min Rain = 0
KMC4 171619Z 36014KT 13/03 A3018 RMK A01 T01330028  RH  049%=      5-min Rain = 0
KMC4 171620Z 36017KT 13/03 A3017 RMK A01 T01320027  RH  049%=      5-min Rain = 0
KMC4 171621Z 35016KT 13/03 A3017 RMK A01 T01300027  RH  049%=      5-min Rain = 0
KMC4 171622Z 35015KT 13/03 A3017 RMK A01 T01300027  RH  049%=      5-min Rain = 0
KMC4 171623Z 35015KT 13/03 A3017 RMK A01 T01310027  RH  049%=      5-min Rain = 0
KMC4 171624Z 35014KT 13/03 A3017 RMK A01 T01310026  RH  049%=      5-min Rain = 0
KMC4 171625Z 34013KT 13/03 A3017 RMK A01 T01310027  RH  049%=      5-min Rain = 0
KMC4 171626Z 35011KT 13/03 A3017 RMK A01 T01320028  RH  049%=      5-min Rain = 0
KMC4 171627Z 36012G18KT 13/03 A3017 RMK A01 T01340028  RH  049%=      5-min Rain = 0
KMC4 171628Z 35013KT 13/03 A3017 RMK A01 T01340028  RH  048%=      5-min Rain = 0
KMC4 171629Z 35012KT 13/03 A3017 RMK A01 T01340028  RH  048%=      5-min Rain = 0
KMC4 171630Z 01014KT 13/03 A3017 RMK A01 T01340028  RH  048%=      5-min Rain = 0
KMC4 171631Z 01015KT 13/03 A3017 RMK A01 T01340027  RH  048%=      5-min Rain = 0
KMC4 171632Z 00014KT 13/03 A3017 RMK A01 T01340026  RH  048%=      5-min Rain = 0
KMC4 171633Z 00012KT 13/03 A3017 RMK A01 T01330026  RH  048%=      5-min Rain = 0
KMC4 171634Z 01011KT 13/03 A3017 RMK A01 T01330027  RH  048%=      5-min Rain = 0
KMC4 171635Z 36012KT 13/03 A3017 RMK A01 T01330027  RH  049%=      5-min Rain = 0
KMC4 171636Z 36013KT 13/03 A3017 RMK A01 T01340027  RH  048%=      5-min Rain = 0
KMC4 171637Z 35012KT 13/03 A3017 RMK A01 T01340026  RH  048%=      5-min Rain = 0
KMC4 171638Z 35013KT 13/03 A3018 RMK A01 T01330026  RH  048%=      5-min Rain = 0
KMC4 171639Z 36014KT 13/03 A3018 RMK A01 T01340026  RH  048%=      5-min Rain = 0
KMC4 171640Z 00013KT 13/03 A3018 RMK A01 T01330025  RH  048%=      5-min Rain = 0
KMC4 171641Z 35010KT 13/03 A3018 RMK A01 T01330025  RH  048%=      5-min Rain = 0
KMC4 171642Z 35009KT 13/03 A3018 RMK A01 T01330026  RH  048%=      5-min Rain = 0
KMC4 171643Z 36007KT 13/03 A3018 RMK A01 T01340027  RH  048%=      5-min Rain = 0
KMC4 171644Z 00009KT 14/03 A3019 RMK A01 T01350027  RH  048%=      5-min Rain = 0
KMC4 171645Z 36008KT 14/03 A3019 RMK A01 T01350026  RH  048%=      5-min Rain = 0
KMC4 171646Z 01009KT 14/03 A3019 RMK A01 T01350027  RH  048%=      5-min Rain = 0
KMC4 171647Z 00011KT 14/03 A3019 RMK A01 T01350026  RH  048%=      5-min Rain = 0
KMC4 171648Z 00012KT 14/03 A3019 RMK A01 T01350026  RH  047%=      5-min Rain = 0
KMC4 171649Z 35013KT 14/03 A3018 RMK A01 T01360025  RH  047%=      5-min Rain = 0
KMC4 171650Z 35012KT 14/03 A3018 RMK A01 T01350026  RH  047%=      5-min Rain = 0
KMC4 171651Z 35013KT 14/03 A3019 RMK A01 T01350025  RH  047%=      5-min Rain = 0
KMC4 171652Z 35012KT 14/03 A3019 RMK A01 T01350025  RH  047%=      5-min Rain = 0
KMC4 171653Z 35010G16KT 14/03 A3019 RMK A01 T01360025  RH  047%=      5-min Rain = 0
KMC4 171654Z 35012KT 14/03 A3018 RMK A01 T01360025  RH  047%=      5-min Rain = 0
KMC4 171655Z 36010KT 14/03 A3018 RMK A01 T01350025  RH  047%=      5-min Rain = 0
KMC4 171656Z 35010KT 14/03 A3018 RMK A01 T01360025  RH  047%=      5-min Rain = 0
KMC4 171657Z 35010KT 14/03 A3018 RMK A01 T01370025  RH  047%=      5-min Rain = 0
KMC4 171658Z 36008KT 14/02 A3018 RMK A01 T01370024  RH  047%=      5-min Rain = 0
KMC4 171659Z 01008KT 14/03 A3018 RMK A01 T01380025  RH  046%=      5-min Rain = 0
KMC4 171700Z 35009KT 14/03 A3018 RMK A01 T01400026  RH  046%=      5-min Rain = 0
KMC4 171701Z 35008KT 14/03 A3018 RMK A01 T01410025  RH  046%=      5-min Rain = 0
KMC4 171702Z 34009KT 14/03 A3018 RMK A01 T01420025  RH  045%=      5-min Rain = 0
KMC4 171703Z 35008KT 14/03 A3019 RMK A01 T01420026  RH  045%=      5-min Rain = 0
KMC4 171704Z 00011KT 14/03 A3019 RMK A01 T01420025  RH  045%=      5-min Rain = 0
KMC4 171705Z 00013KT 14/02 A3019 RMK A01 T01420024  RH  045%=      5-min Rain = 0
KMC4 171706Z 01011KT 14/02 A3019 RMK A01 T01410024  RH  045%=      5-min Rain = 0
KMC4 171707Z 36008KT 14/02 A3019 RMK A01 T01400023  RH  045%=      5-min Rain = 0
KMC4 171708Z 35007KT 14/02 A3019 RMK A01 T01400023  RH  045%=      5-min Rain = 0
KMC4 171709Z 35006KT 14/02 A3019 RMK A01 T01400024  RH  045%=      5-min Rain = 0
KMC4 171710Z 00008KT 14/03 A3019 RMK A01 T01420025  RH  045%=      5-min Rain = 0
KMC4 171711Z 36008KT 14/03 A3019 RMK A01 T01440026  RH  045%=      5-min Rain = 0
KMC4 171712Z 01008KT 14/02 A3019 RMK A01 T01440024  RH  044%=      5-min Rain = 0
KMC4 171713Z 35007KT 15/03 A3019 RMK A01 T01450025  RH  044%=      5-min Rain = 0
KMC4 171714Z 35008KT 15/03 A3019 RMK A01 T01470028  RH  045%=      5-min Rain = 0
KMC4 171715Z 35008KT 15/03 A3019 RMK A01 T01480026  RH  044%=      5-min Rain = 0
KMC4 171716Z 00009KT 15/02 A3019 RMK A01 T01480024  RH  043%=      5-min Rain = 0
KMC4 171717Z 36008KT 15/03 A3019 RMK A01 T01470025  RH  044%=      5-min Rain = 0
KMC4 171718Z 32007KT 15/03 A3019 RMK A01 T01470026  RH  044%=      5-min Rain = 0
KMC4 171719Z 34008KT 15/03 A3019 RMK A01 T01490029  RH  044%=      5-min Rain = 0
KMC4 171720Z 33007KT 15/03 A3019 RMK A01 T01520028  RH  043%=      5-min Rain = 0
KMC4 171721Z 34008KT 15/03 A3019 RMK A01 T01520028  RH  043%=      5-min Rain = 0
KMC4 171722Z 33011KT 15/03 A3019 RMK A01 T01520027  RH  043%=      5-min Rain = 0
KMC4 171723Z 33011KT 15/03 A3019 RMK A01 T01530027  RH  043%=      5-min Rain = 0
KMC4 171724Z 32010KT 15/03 A3019 RMK A01 T01510026  RH  043%=      5-min Rain = 0
KMC4 171725Z 33012KT 15/03 A3019 RMK A01 T01510027  RH  043%=      5-min Rain = 0
KMC4 171726Z 33010KT 15/03 A3019 RMK A01 T01510026  RH  043%=      5-min Rain = 0
KMC4 171727Z 32010KT 15/03 A3019 RMK A01 T01500025  RH  043%=      5-min Rain = 0
KMC4 171728Z 33009KT 15/03 A3019 RMK A01 T01490025  RH  043%=      5-min Rain = 0
KMC4 171729Z 33008KT 15/03 A3019 RMK A01 T01490025  RH  043%=      5-min Rain = 0
KMC4 171730Z 34007KT 15/03 A3019 RMK A01 T01500025  RH  043%=      5-min Rain = 0
KMC4 171731Z 33009KT 15/03 A3018 RMK A01 T01500025  RH  043%=      5-min Rain = 0
KMC4 171732Z 32009KT 15/03 A3018 RMK A01 T01490025  RH  043%=      5-min Rain = 0
KMC4 171733Z 32010KT 15/03 A3018 RMK A01 T01490025  RH  043%=      5-min Rain = 0
KMC4 171734Z 33012KT 15/03 A3018 RMK A01 T01490025  RH  043%=      5-min Rain = 0
KMC4 171735Z 33011KT 15/03 A3018 RMK A01 T01490025  RH  043%=      5-min Rain = 0
KMC4 171736Z 34011KT 15/03 A3018 RMK A01 T01500025  RH  043%=      5-min Rain = 0
KMC4 171737Z 35009KT 15/02 A3018 RMK A01 T01510024  RH  042%=      5-min Rain = 0
KMC4 171738Z 34010KT 15/02 A3018 RMK A01 T01500023  RH  042%=      5-min Rain = 0
KMC4 171739Z 32009KT 15/02 A3018 RMK A01 T01490024  RH  043%=      5-min Rain = 0
KMC4 171740Z 33011KT 15/02 A3018 RMK A01 T01500024  RH  043%=      5-min Rain = 0
KMC4 171741Z 32010KT 15/03 A3018 RMK A01 T01500025  RH  043%=      5-min Rain = 0
KMC4 171742Z 32009KT 15/03 A3018 RMK A01 T01520026  RH  043%=      5-min Rain = 0
KMC4 171743Z 33011KT 15/03 A3018 RMK A01 T01530026  RH  042%=      5-min Rain = 0
KMC4 171744Z 33012KT 15/02 A3018 RMK A01 T01530023  RH  042%=      5-min Rain = 0
KMC4 171745Z 33008KT 15/02 A3018 RMK A01 T01510023  RH  042%=      5-min Rain = 0
KMC4 171746Z 33009KT 15/02 A3018 RMK A01 T01510024  RH  042%=      5-min Rain = 0
KMC4 171747Z 33010KT 15/02 A3018 RMK A01 T01510024  RH  042%=      5-min Rain = 0
KMC4 171748Z 32012KT 15/02 A3018 RMK A01 T01520023  RH  042%=      5-min Rain = 0
KMC4 171749Z 33011KT 15/02 A3018 RMK A01 T01520023  RH  042%=      5-min Rain = 0
KMC4 171750Z 34011KT 15/02 A3018 RMK A01 T01520023  RH  042%=      5-min Rain = 0
KMC4 171751Z 33010KT 15/02 A3018 RMK A01 T01520024  RH  042%=      5-min Rain = 0
KMC4 171752Z 33010KT 15/03 A3018 RMK A01 T01530025  RH  042%=      5-min Rain = 0
KMC4 171753Z 33012KT 15/02 A3018 RMK A01 T01540023  RH  041%=      5-min Rain = 0
KMC4 171754Z 33013KT 15/02 A3018 RMK A01 T01530022  RH  041%=      5-min Rain = 0
KMC4 171755Z 34013KT 15/02 A3017 RMK A01 T01510021  RH  041%=      5-min Rain = 0
KMC4 171756Z 34009KT 15/02 A3017 RMK A01 T01510022  RH  042%=      5-min Rain = 0
KMC4 171757Z 35008KT 15/02 A3017 RMK A01 T01510021  RH  042%=      5-min Rain = 0
KMC4 171758Z 34008KT 15/02 A3017 RMK A01 T01510020  RH  041%=      5-min Rain = 0
KMC4 171759Z 32010KT 15/02 A3017 RMK A01 T01510022  RH  042%=      5-min Rain = 0
KMC4 171800Z 31009KT 15/02 A3017 RMK A01 T01510021  RH  041%=      5-min Rain = 0
KMC4 171801Z 31009KT 15/02 A3017 RMK A01 T01520022  RH  041%=      5-min Rain = 0
KMC4 171802Z 32009KT 15/02 A3017 RMK A01 T01530022  RH  041%=      5-min Rain = 0
KMC4 171803Z 33007KT 15/02 A3017 RMK A01 T01530022  RH  041%=      5-min Rain = 0
KMC4 171804Z 33008KT 15/02 A3017 RMK A01 T01530022  RH  041%=      5-min Rain = 0
KMC4 171805Z 32010KT 16/02 A3017 RMK A01 T01550023  RH  041%=      5-min Rain = 0
KMC4 171806Z 31008KT 16/02 A3017 RMK A01 T01560022  RH  040%=      5-min Rain = 0
KMC4 171807Z 32008KT 16/02 A3017 RMK A01 T01560023  RH  041%=      5-min Rain = 0
KMC4 171808Z 34008KT 16/03 A3017 RMK A01 T01590025  RH  041%=      5-min Rain = 0
KMC4 171809Z 33009KT 16/02 A3017 RMK A01 T01600024  RH  040%=      5-min Rain = 0
KMC4 171810Z 33009KT 16/02 A3017 RMK A01 T01600022  RH  039%=      5-min Rain = 0
KMC4 171811Z 32009KT 16/02 A3017 RMK A01 T01590023  RH  040%=      5-min Rain = 0
KMC4 171812Z 33012KT 16/02 A3017 RMK A01 T01590022  RH  040%=      5-min Rain = 0
KMC4 171813Z 34010KT 16/02 A3017 RMK A01 T01590020  RH  039%=      5-min Rain = 0
KMC4 171814Z 33011KT 16/02 A3017 RMK A01 T01570020  RH  040%=      5-min Rain = 0
KMC4 171815Z 32009KT 16/02 A3017 RMK A01 T01560021  RH  040%=      5-min Rain = 0
KMC4 171816Z 33009KT 16/02 A3017 RMK A01 T01570021  RH  040%=      5-min Rain = 0
KMC4 171817Z 33010KT 16/02 A3017 RMK A01 T01570020  RH  040%=      5-min Rain = 0
KMC4 171818Z 32010KT 16/02 A3017 RMK A01 T01560020  RH  040%=      5-min Rain = 0
KMC4 171819Z 30011KT 16/02 A3017 RMK A01 T01560021  RH  040%=      5-min Rain = 0
KMC4 171820Z 31009KT 16/02 A3017 RMK A01 T01570021  RH  040%=      5-min Rain = 0
KMC4 171821Z 30007KT 16/02 A3016 RMK A01 T01570020  RH  040%=      5-min Rain = 0
KMC4 171822Z 29010KT 16/02 A3016 RMK A01 T01560021  RH  040%=      5-min Rain = 0
KMC4 171823Z 30010KT 16/02 A3016 RMK A01 T01570020  RH  040%=      5-min Rain = 0
KMC4 171824Z 30010KT 16/02 A3016 RMK A01 T01570020  RH  040%=      5-min Rain = 0
KMC4 171825Z 29011KT 16/02 A3016 RMK A01 T01570021  RH  040%=      5-min Rain = 0
KMC4 171826Z 30008KT 16/02 A3016 RMK A01 T01570020  RH  040%=      5-min Rain = 0
KMC4 171827Z 30009KT 16/02 A3016 RMK A01 T01570020  RH  040%=      5-min Rain = 0
KMC4 171828Z 31008KT 16/02 A3016 RMK A01 T01570021  RH  040%=      5-min Rain = 0
KMC4 171829Z 33009KT 16/02 A3016 RMK A01 T01580022  RH  040%=      5-min Rain = 0
KMC4 171830Z 34009KT 16/02 A3016 RMK A01 T01590020  RH  039%=      5-min Rain = 0
KMC4 171831Z 34010KT 16/02 A3016 RMK A01 T01590020  RH  039%=      5-min Rain = 0
KMC4 171832Z 33009KT 16/02 A3016 RMK A01 T01580020  RH  039%=      5-min Rain = 0
KMC4 171833Z 34010KT 16/02 A3016 RMK A01 T01570019  RH  039%=      5-min Rain = 0
KMC4 171834Z 35011KT 16/02 A3016 RMK A01 T01560019  RH  039%=      5-min Rain = 0
KMC4 171835Z 33009KT 16/02 A3015 RMK A01 T01560020  RH  040%=      5-min Rain = 0
KMC4 171836Z 32010KT 16/02 A3015 RMK A01 T01590022  RH  040%=      5-min Rain = 0
KMC4 171837Z 33007KT 16/02 A3015 RMK A01 T01600021  RH  039%=      5-min Rain = 0
KMC4 171838Z 32009KT 16/02 A3016 RMK A01 T01610021  RH  039%=      5-min Rain = 0
KMC4 171839Z 34009KT 16/02 A3016 RMK A01 T01620022  RH  039%=      5-min Rain = 0
KMC4 171840Z 33008KT 16/02 A3016 RMK A01 T01620021  RH  038%=      5-min Rain = 0
KMC4 171841Z 33005KT 16/02 A3016 RMK A01 T01610021  RH  039%=      5-min Rain = 0
KMC4 171842Z 33005KT 16/02 A3016 RMK A01 T01600020  RH  039%=      5-min Rain = 0
KMC4 171843Z 34005G11KT 16/02 A3015 RMK A01 T01600022  RH  039%=      5-min Rain = 0
KMC4 171844Z 34010KT 16/02 A3015 RMK A01 T01610021  RH  039%=      5-min Rain = 0
KMC4 171845Z 34009KT 16/02 A3015 RMK A01 T01620021  RH  038%=      5-min Rain = 0
KMC4 171846Z 32007KT 16/02 A3015 RMK A01 T01620022  RH  039%=      5-min Rain = 0
KMC4 171847Z 30009KT 16/02 A3015 RMK A01 T01620022  RH  039%=      5-min Rain = 0
KMC4 171848Z 29011KT 16/02 A3015 RMK A01 T01630022  RH  039%=      5-min Rain = 0
KMC4 171849Z 30010KT 16/02 A3015 RMK A01 T01630021  RH  038%=      5-min Rain = 0
KMC4 171850Z 29008KT 16/02 A3015 RMK A01 T01620020  RH  038%=      5-min Rain = 0
KMC4 171851Z 30007KT 16/02 A3015 RMK A01 T01630024  RH  039%=      5-min Rain = 0
KMC4 171852Z 31009KT 17/02 A3015 RMK A01 T01650023  RH  038%=      5-min Rain = 0
KMC4 171853Z 31011KT 17/02 A3015 RMK A01 T01650022  RH  038%=      5-min Rain = 0
KMC4 171854Z 30012KT 17/02 A3015 RMK A01 T01650021  RH  038%=      5-min Rain = 0
KMC4 171855Z 31011KT 16/02 A3015 RMK A01 T01640021  RH  038%=      5-min Rain = 0
KMC4 171856Z 31009KT 16/02 A3015 RMK A01 T01640021  RH  038%=      5-min Rain = 0
KMC4 171857Z 31008KT 16/02 A3015 RMK A01 T01630020  RH  038%=      5-min Rain = 0
KMC4 171858Z 31009KT 16/02 A3015 RMK A01 T01620020  RH  038%=      5-min Rain = 0
KMC4 171859Z 30007KT 16/02 A3015 RMK A01 T01620020  RH  038%=      5-min Rain = 0
KMC4 171900Z 31011KT 16/02 A3015 RMK A01 T01630023  RH  039%=      5-min Rain = 0
KMC4 171901Z 30010KT 17/02 A3014 RMK A01 T01650021  RH  038%=      5-min Rain = 0
KMC4 171902Z 30007KT 16/02 A3014 RMK A01 T01640020  RH  038%=      5-min Rain = 0
KMC4 171903Z 30007KT 16/02 A3014 RMK A01 T01630021  RH  038%=      5-min Rain = 0
KMC4 171904Z 31008KT 16/02 A3014 RMK A01 T01630023  RH  039%=      5-min Rain = 0
KMC4 171905Z 31009KT 16/02 A3014 RMK A01 T01640021  RH  038%=      5-min Rain = 0
KMC4 171906Z 33008KT 16/02 A3015 RMK A01 T01640020  RH  038%=      5-min Rain = 0
KMC4 171907Z 34006KT 16/02 A3014 RMK A01 T01630020  RH  038%=      5-min Rain = 0
KMC4 171908Z 31008KT 16/02 A3014 RMK A01 T01630021  RH  038%=      5-min Rain = 0
KMC4 171909Z 32009KT 16/02 A3014 RMK A01 T01640022  RH  038%=      5-min Rain = 0
KMC4 171910Z 33010KT 17/02 A3014 RMK A01 T01650022  RH  038%=      5-min Rain = 0
KMC4 171911Z 30008KT 16/02 A3014 RMK A01 T01640020  RH  038%=      5-min Rain = 0
KMC4 171912Z 29007KT 16/02 A3014 RMK A01 T01640021  RH  038%=      5-min Rain = 0
KMC4 171913Z 30009KT 17/02 A3014 RMK A01 T01670024  RH  038%=      5-min Rain = 0
KMC4 171914Z 30010KT 17/02 A3014 RMK A01 T01680022  RH  037%=      5-min Rain = 0
KMC4 171915Z 31008KT 17/02 A3014 RMK A01 T01670021  RH  038%=      5-min Rain = 0
KMC4 171916Z 29011KT 17/02 A3014 RMK A01 T01670022  RH  038%=      5-min Rain = 0
KMC4 171917Z 28010KT 17/02 A3014 RMK A01 T01660021  RH  038%=      5-min Rain = 0
KMC4 171918Z 29008KT 17/02 A3014 RMK A01 T01650021  RH  038%=      5-min Rain = 0
KMC4 171919Z 30008KT 17/02 A3014 RMK A01 T01660020  RH  037%=      5-min Rain = 0
KMC4 171920Z 31010KT 17/02 A3014 RMK A01 T01660023  RH  038%=      5-min Rain = 0
KMC4 171921Z 31011KT 17/02 A3013 RMK A01 T01670022  RH  038%=      5-min Rain = 0
KMC4 171922Z 32009KT 17/02 A3013 RMK A01 T01670022  RH  038%=      5-min Rain = 0
KMC4 171923Z 32010KT 17/02 A3013 RMK A01 T01690023  RH  037%=      5-min Rain = 0
KMC4 171924Z 31011KT 17/02 A3014 RMK A01 T01690022  RH  037%=      5-min Rain = 0
KMC4 171925Z 31010KT 17/02 A3013 RMK A01 T01680021  RH  037%=      5-min Rain = 0
KMC4 171926Z 30009KT 17/02 A3013 RMK A01 T01670021  RH  037%=      5-min Rain = 0
KMC4 171927Z 30007KT 17/02 A3013 RMK A01 T01670021  RH  037%=      5-min Rain = 0
KMC4 171928Z 31006KT 17/02 A3013 RMK A01 T01660021  RH  038%=      5-min Rain = 0
KMC4 171929Z 32011KT 17/02 A3013 RMK A01 T01670022  RH  038%=      5-min Rain = 0
KMC4 171930Z 32008KT 17/02 A3013 RMK A01 T01680021  RH  037%=      5-min Rain = 0
KMC4 171931Z 32008KT 17/02 A3013 RMK A01 T01690022  RH  037%=      5-min Rain = 0
KMC4 171932Z 33008KT 17/02 A3013 RMK A01 T01690021  RH  037%=      5-min Rain = 0
KMC4 171933Z 32008G13KT 17/02 A3013 RMK A01 T01690022  RH  037%=      5-min Rain = 0
KMC4 171934Z 31010KT 17/02 A3013 RMK A01 T01690021  RH  037%=      5-min Rain = 0
KMC4 171935Z 32008KT 17/02 A3013 RMK A01 T01690020  RH  037%=      5-min Rain = 0
KMC4 171936Z 32006KT 17/02 A3012 RMK A01 T01670019  RH  037%=      5-min Rain = 0
KMC4 171937Z 33005KT 17/02 A3012 RMK A01 T01660022  RH  038%=      5-min Rain = 0
KMC4 171938Z 31007KT 17/02 A3012 RMK A01 T01680023  RH  038%=      5-min Rain = 0
KMC4 171939Z 32008KT 17/02 A3013 RMK A01 T01710024  RH  037%=      5-min Rain = 0
KMC4 171940Z 31009KT 17/02 A3013 RMK A01 T01720024  RH  037%=      5-min Rain = 0
KMC4 171941Z 32009KT 17/03 A3012 RMK A01 T01740025  RH  037%=      5-min Rain = 0
KMC4 171942Z 32009KT 18/02 A3012 RMK A01 T01750023  RH  036%=      5-min Rain = 0
KMC4 171943Z 31008KT 18/02 A3011 RMK A01 T01750022  RH  036%=      5-min Rain = 0
KMC4 171944Z 31009KT 17/02 A3011 RMK A01 T01730021  RH  036%=      5-min Rain = 0
KMC4 171945Z 29009KT 17/02 A3012 RMK A01 T01720020  RH  036%=      5-min Rain = 0
KMC4 171946Z 30008KT 17/02 A3012 RMK A01 T01700020  RH  036%=      5-min Rain = 0
KMC4 171947Z 30008KT 17/02 A3012 RMK A01 T01690021  RH  037%=      5-min Rain = 0
KMC4 171948Z 32009KT 17/02 A3011 RMK A01 T01710022  RH  037%=      5-min Rain = 0
KMC4 171949Z 32009KT 17/02 A3011 RMK A01 T01720022  RH  037%=      5-min Rain = 0
KMC4 171950Z 33008KT 17/02 A3011 RMK A01 T01730022  RH  036%=      5-min Rain = 0
KMC4 171951Z 34007KT 17/02 A3011 RMK A01 T01730021  RH  036%=      5-min Rain = 0
KMC4 171952Z 34009KT 17/02 A3011 RMK A01 T01720021  RH  036%=      5-min Rain = 0
KMC4 171953Z 34007KT 17/02 A3011 RMK A01 T01700019  RH  036%=      5-min Rain = 0
KMC4 171954Z 34006KT 17/02 A3011 RMK A01 T01700019  RH  036%=      5-min Rain = 0
KMC4 171955Z 32005KT 17/02 A3011 RMK A01 T01700020  RH  037%=      5-min Rain = 0
KMC4 171956Z 31006KT 17/02 A3011 RMK A01 T01720023  RH  037%=      5-min Rain = 0
KMC4 171957Z 31007KT 18/02 A3011 RMK A01 T01750024  RH  036%=      5-min Rain = 0
KMC4 171958Z 31011KT 18/02 A3011 RMK A01 T01770022  RH  035%=      5-min Rain = 0
KMC4 171959Z 32010KT 18/02 A3011 RMK A01 T01750021  RH  036%=      5-min Rain = 0
KMC4 172000Z 33010KT 18/02 A3011 RMK A01 T01750022  RH  036%=      5-min Rain = 0
KMC4 172001Z 31008KT 18/02 A3011 RMK A01 T01750022  RH  036%=      5-min Rain = 0
KMC4 172002Z 31010KT 18/02 A3011 RMK A01 T01750022  RH  036%=      5-min Rain = 0
KMC4 172003Z 32009KT 18/02 A3011 RMK A01 T01760021  RH  035%=      5-min Rain = 0
KMC4 172004Z 33007KT 18/02 A301 RMK A01 T01750021  RH  036%=      5-min Rain = 0
KMC4 172005Z 34009KT 18/02 A301 RMK A01 T01750021  RH  036%=      5-min Rain = 0
KMC4 172006Z 33009KT 18/02 A301 RMK A01 T01760021  RH  035%=      5-min Rain = 0
KMC4 172007Z 31011KT 18/02 A301 RMK A01 T01750021  RH  036%=      5-min Rain = 0
KMC4 172008Z 32011KT 18/02 A301 RMK A01 T01760022  RH  036%=      5-min Rain = 0
KMC4 172009Z 33008KT 18/02 A301 RMK A01 T01770021  RH  035%=      5-min Rain = 0
KMC4 172010Z 32009KT 18/02 A301 RMK A01 T01770022  RH  035%=      5-min Rain = 0
KMC4 172011Z 33009KT 18/02 A301 RMK A01 T01770021  RH  035%=      5-min Rain = 0
KMC4 172012Z 32008KT 18/02 A301 RMK A01 T01760022  RH  035%=      5-min Rain = 0
KMC4 172013Z 34009KT 18/02 A301 RMK A01 T01770022  RH  035%=      5-min Rain = 0
KMC4 172014Z 33010KT 18/02 A3011 RMK A01 T01780022  RH  035%=      5-min Rain = 0
KMC4 172015Z 35008KT 18/02 A301 RMK A01 T01770021  RH  035%=      5-min Rain = 0
KMC4 172016Z 35008KT 18/02 A301 RMK A01 T01750020  RH  035%=      5-min Rain = 0
KMC4 172017Z 35007KT 17/02 A301 RMK A01 T01730019  RH  035%=      5-min Rain = 0
KMC4 172018Z 34004KT 17/02 A301 RMK A01 T01710019  RH  036%=      5-min Rain = 0
KMC4 172019Z 30007KT 17/02 A301 RMK A01 T01720022  RH  036%=      5-min Rain = 0
KMC4 172020Z 30006KT 17/02 A301 RMK A01 T01730020  RH  036%=      5-min Rain = 0
KMC4 172021Z 28009KT 17/02 A301 RMK A01 T01730020  RH  036%=      5-min Rain = 0
KMC4 172022Z 30012KT 17/02 A301 RMK A01 T01730022  RH  036%=      5-min Rain = 0
KMC4 172023Z 32010KT 18/02 A301 RMK A01 T01750022  RH  036%=      5-min Rain = 0
KMC4 172024Z 32010KT 18/02 A301 RMK A01 T01760022  RH  036%=      5-min Rain = 0
KMC4 172025Z 33007KT 18/02 A301 RMK A01 T01760021  RH  035%=      5-min Rain = 0
KMC4 172026Z 35007KT 18/02 A301 RMK A01 T01760021  RH  035%=      5-min Rain = 0
KMC4 172027Z 34007KT 18/02 A301 RMK A01 T01760020  RH  035%=      5-min Rain = 0
KMC4 172028Z 33007KT 18/02 A301 RMK A01 T01750021  RH  036%=      5-min Rain = 0
KMC4 172029Z 32007KT 18/02 A301 RMK A01 T01750021  RH  036%=      5-min Rain = 0
KMC4 172030Z 32009KT 18/02 A301 RMK A01 T01760022  RH  036%=      5-min Rain = 0
KMC4 172031Z 32007KT 18/02 A301 RMK A01 T01780023  RH  035%=      5-min Rain = 0
KMC4 172032Z 34009KT 18/02 A301 RMK A01 T01800022  RH  035%=      5-min Rain = 0
KMC4 172033Z 33010KT 18/02 A301 RMK A01 T01790020  RH  034%=      5-min Rain = 0
KMC4 172034Z 32009KT 18/02 A301 RMK A01 T01780020  RH  035%=      5-min Rain = 0
KMC4 172035Z 32008KT 18/02 A301 RMK A01 T01770021  RH  035%=      5-min Rain = 0
KMC4 172036Z 32009KT 18/02 A301 RMK A01 T01790023  RH  035%=      5-min Rain = 0
KMC4 172037Z 32009KT 18/02 A301 RMK A01 T01800022  RH  035%=      5-min Rain = 0
KMC4 172038Z 31007KT 18/02 A301 RMK A01 T01800021  RH  034%=      5-min Rain = 0
KMC4 172039Z 30010KT 18/02 A301 RMK A01 T01800022  RH  035%=      5-min Rain = 0
KMC4 172040Z 30010KT 18/02 A301 RMK A01 T01800021  RH  034%=      5-min Rain = 0
KMC4 172041Z 31009KT 18/02 A301 RMK A01 T01800021  RH  034%=      5-min Rain = 0
KMC4 172042Z 31009KT 18/02 A301 RMK A01 T01800022  RH  034%=      5-min Rain = 0
KMC4 172043Z 30011KT 18/02 A301 RMK A01 T01810021  RH  034%=      5-min Rain = 0
KMC4 172044Z 31009KT 18/02 A301 RMK A01 T01800019  RH  034%=      5-min Rain = 0
KMC4 172045Z 34009KT 18/02 A301 RMK A01 T01800022  RH  035%=      5-min Rain = 0
KMC4 172046Z 34009KT 18/02 A301 RMK A01 T01810021  RH  034%=      5-min Rain = 0
KMC4 172047Z 35008KT 18/02 A301 RMK A01 T01810021  RH  034%=      5-min Rain = 0
KMC4 172048Z 36006KT 18/02 A301 RMK A01 T01810021  RH  034%=      5-min Rain = 0
KMC4 172049Z 30006KT 18/02 A301 RMK A01 T01820022  RH  034%=      5-min Rain = 0
KMC4 172050Z 33010KT 18/02 A301 RMK A01 T01820023  RH  034%=      5-min Rain = 0
KMC4 172051Z 32011KT 18/02 A301 RMK A01 T01840023  RH  034%=      5-min Rain = 0
KMC4 172052Z 32010KT 18/02 A301 RMK A01 T01840022  RH  034%=      5-min Rain = 0
KMC4 172053Z 30008KT 18/02 A301 RMK A01 T01830022  RH  034%=      5-min Rain = 0
KMC4 172054Z 31007KT 18/02 A301 RMK A01 T01820022  RH  034%=      5-min Rain = 0
KMC4 172055Z 32007KT 18/02 A301 RMK A01 T01810022  RH  034%=      5-min Rain = 0
KMC4 172056Z 31006KT 18/02 A301 RMK A01 T01820023  RH  035%=      5-min Rain = 0
KMC4 172057Z 31010KT 18/02 A301 RMK A01 T01820021  RH  034%=      5-min Rain = 0
KMC4 172058Z 31010KT 18/02 A301 RMK A01 T01810021  RH  034%=      5-min Rain = 0
KMC4 172059Z 31008KT 18/02 A301 RMK A01 T01800020  RH  034%=      5-min Rain = 0
KMC4 172100Z 31009KT 18/02 A301 RMK A01 T01800020  RH  034%=      5-min Rain = 0
KMC4 172101Z 32010KT 18/02 A301 RMK A01 T01800020  RH  034%=      5-min Rain = 0
KMC4 172102Z 32011KT 18/02 A301 RMK A01 T01810022  RH  034%=      5-min Rain = 0
KMC4 172103Z 32013KT 18/02 A301 RMK A01 T01830022  RH  034%=      5-min Rain = 0
KMC4 172104Z 32012KT 18/02 A301 RMK A01 T01830021  RH  034%=      5-min Rain = 0
KMC4 172105Z 32008KT 18/02 A301 RMK A01 T01820021  RH  034%=      5-min Rain = 0
KMC4 172106Z 32008KT 18/02 A3009 RMK A01 T01820023  RH  034%=      5-min Rain = 0
KMC4 172107Z 31010KT 18/02 A3009 RMK A01 T01830021  RH  034%=      5-min Rain = 0
KMC4 172108Z 31010KT 18/02 A3009 RMK A01 T01830021  RH  034%=      5-min Rain = 0
KMC4 172109Z 32009KT 18/02 A3009 RMK A01 T01830021  RH  034%=      5-min Rain = 0
KMC4 172110Z 31009KT 18/02 A3009 RMK A01 T01820021  RH  034%=      5-min Rain = 0
KMC4 172111Z 30009KT 18/02 A3009 RMK A01 T01820021  RH  034%=      5-min Rain = 0
KMC4 172112Z 30009KT 18/02 A3009 RMK A01 T01820020  RH  034%=      5-min Rain = 0
KMC4 172113Z 29007KT 18/02 A3009 RMK A01 T01810020  RH  034%=      5-min Rain = 0
KMC4 172114Z 30006KT 18/02 A3009 RMK A01 T01810021  RH  034%=      5-min Rain = 0
KMC4 172115Z 32006KT 18/02 A3009 RMK A01 T01830022  RH  034%=      5-min Rain = 0
KMC4 172116Z 31007KT 19/02 A3009 RMK A01 T01850022  RH  034%=      5-min Rain = 0
KMC4 172117Z 31006KT 18/02 A3009 RMK A01 T01840021  RH  034%=      5-min Rain = 0
KMC4 172118Z 33009KT 18/02 A3009 RMK A01 T01830021  RH  034%=      5-min Rain = 0
KMC4 172119Z 32009KT 18/02 A3009 RMK A01 T01830020  RH  034%=      5-min Rain = 0
KMC4 172120Z 32009KT 18/02 A3009 RMK A01 T01820022  RH  034%=      5-min Rain = 0
KMC4 172121Z 33008KT 18/02 A3009 RMK A01 T01830021  RH  034%=      5-min Rain = 0
KMC4 172122Z 32007KT 18/02 A3009 RMK A01 T01830021  RH  034%=      5-min Rain = 0
KMC4 172123Z 33006KT 18/02 A3009 RMK A01 T01840022  RH  034%=      5-min Rain = 0
KMC4 172124Z 34007KT 18/02 A3009 RMK A01 T01840021  RH  033%=      5-min Rain = 0
KMC4 172125Z 32006KT 18/02 A3009 RMK A01 T01840020  RH  033%=      5-min Rain = 0
KMC4 172126Z 31009KT 18/02 A3009 RMK A01 T01840022  RH  034%=      5-min Rain = 0
KMC4 172127Z 31011KT 19/02 A3009 RMK A01 T01850021  RH  033%=      5-min Rain = 0
KMC4 172128Z 32010KT 19/02 A3009 RMK A01 T01850020  RH  033%=      5-min Rain = 0
KMC4 172129Z 32010KT 19/02 A3009 RMK A01 T01850021  RH  033%=      5-min Rain = 0
KMC4 172130Z 32009KT 19/02 A3009 RMK A01 T01850021  RH  033%=      5-min Rain = 0
KMC4 172131Z 33009KT 19/02 A3009 RMK A01 T01850020  RH  033%=      5-min Rain = 0
KMC4 172132Z 31007KT 19/02 A3009 RMK A01 T01850022  RH  034%=      5-min Rain = 0
KMC4 172133Z 32006KT 19/02 A3009 RMK A01 T01850021  RH  033%=      5-min Rain = 0
KMC4 172134Z 33006KT 19/02 A3009 RMK A01 T01860022  RH  033%=      5-min Rain = 0
KMC4 172135Z 32008KT 19/02 A3009 RMK A01 T01870021  RH  033%=      5-min Rain = 0
KMC4 172136Z 31010KT 19/02 A3009 RMK A01 T01870021  RH  033%=      5-min Rain = 0
KMC4 172137Z 32010KT 19/02 A3009 RMK A01 T01880022  RH  033%=      5-min Rain = 0
KMC4 172138Z 31008KT 19/02 A3009 RMK A01 T01890021  RH  033%=      5-min Rain = 0
KMC4 172139Z 30008KT 19/02 A301 RMK A01 T01880019  RH  032%=      5-min Rain = 0
KMC4 172140Z 32009KT 19/02 A301 RMK A01 T01870021  RH  033%=      5-min Rain = 0
KMC4 172141Z 33007KT 19/02 A301 RMK A01 T01870021  RH  033%=      5-min Rain = 0
KMC4 172142Z 33010KT 19/02 A301 RMK A01 T01880019  RH  033%=      5-min Rain = 0
KMC4 172143Z 34011KT 19/02 A301 RMK A01 T01870019  RH  033%=      5-min Rain = 0
KMC4 172144Z 35009KT 19/02 A301 RMK A01 T01860019  RH  033%=      5-min Rain = 0
KMC4 172145Z 33008KT 19/02 A301 RMK A01 T01860020  RH  033%=      5-min Rain = 0
KMC4 172146Z 32008KT 19/02 A301 RMK A01 T01860022  RH  033%=      5-min Rain = 0
KMC4 172147Z 32010KT 19/02 A301 RMK A01 T01880021  RH  033%=      5-min Rain = 0
KMC4 172148Z 32010KT 19/02 A301 RMK A01 T01880021  RH  033%=      5-min Rain = 0
KMC4 172149Z 32007KT 19/02 A301 RMK A01 T01880020  RH  033%=      5-min Rain = 0
KMC4 172150Z 33008KT 19/02 A301 RMK A01 T01880020  RH  033%=      5-min Rain = 0
KMC4 172151Z 33009KT 19/02 A301 RMK A01 T01870021  RH  033%=      5-min Rain = 0
KMC4 172152Z 30007KT 19/02 A301 RMK A01 T01870022  RH  033%=      5-min Rain = 0
KMC4 172153Z 31008KT 19/02 A301 RMK A01 T01870020  RH  033%=      5-min Rain = 0
KMC4 172154Z 30007KT 19/02 A301 RMK A01 T01870021  RH  033%=      5-min Rain = 0
KMC4 172155Z 30007KT 19/02 A301 RMK A01 T01870020  RH  033%=      5-min Rain = 0
KMC4 172156Z 31007KT 19/02 A301 RMK A01 T01870022  RH  033%=      5-min Rain = 0
KMC4 172157Z 30005KT 19/02 A301 RMK A01 T01870021  RH  033%=      5-min Rain = 0
KMC4 172158Z 30006KT 19/02 A3009 RMK A01 T01890022  RH  033%=      5-min Rain = 0
KMC4 172159Z 30006KT 19/02 A3009 RMK A01 T01890020  RH  032%=      5-min Rain = 0
KMC4 172200Z 31005KT 19/02 A3009 RMK A01 T01880022  RH  033%=      5-min Rain = 0
KMC4 172201Z 30007KT 19/02 A301 RMK A01 T01890022  RH  033%=      5-min Rain = 0
KMC4 172202Z 31008KT 19/02 A3009 RMK A01 T01900023  RH  033%=      5-min Rain = 0
KMC4 172203Z 31010KT 19/02 A301 RMK A01 T01910022  RH  033%=      5-min Rain = 0
KMC4 172204Z 30010KT 19/02 A301 RMK A01 T01910022  RH  032%=      5-min Rain = 0
KMC4 172205Z 31009KT 19/02 A301 RMK A01 T01900020  RH  032%=      5-min Rain = 0
KMC4 172206Z 29007KT 19/02 A301 RMK A01 T01880020  RH  033%=      5-min Rain = 0
KMC4 172207Z 30006KT 19/02 A301 RMK A01 T01880020  RH  033%=      5-min Rain = 0
KMC4 172208Z 29009KT 19/02 A301 RMK A01 T01880020  RH  033%=      5-min Rain = 0
KMC4 172209Z 30008KT 19/02 A301 RMK A01 T01880020  RH  033%=      5-min Rain = 0
KMC4 172210Z 30006KT 19/02 A301 RMK A01 T01870020  RH  033%=      5-min Rain = 0
KMC4 172211Z 29005KT 19/02 A301 RMK A01 T01870021  RH  033%=      5-min Rain = 0
KMC4 172212Z 32005KT 19/02 A3009 RMK A01 T01870020  RH  033%=      5-min Rain = 0
KMC4 172213Z 32005KT 19/02 A3009 RMK A01 T01880021  RH  033%=      5-min Rain = 0
KMC4 172214Z 31005KT 19/02 A3009 RMK A01 T01890024  RH  033%=      5-min Rain = 0
KMC4 172215Z 32008KT 19/02 A3009 RMK A01 T01910024  RH  033%=      5-min Rain = 0
KMC4 172216Z 32006KT 19/02 A3009 RMK A01 T01920021  RH  032%=      5-min Rain = 0
KMC4 172217Z 31004KT 19/02 A3009 RMK A01 T01910020  RH  032%=      5-min Rain = 0
KMC4 172218Z 33006KT 19/02 A3009 RMK A01 T01910021  RH  032%=      5-min Rain = 0
KMC4 172219Z 33007KT 19/02 A3009 RMK A01 T01900020  RH  032%=      5-min Rain = 0
KMC4 172220Z 30008KT 19/02 A3009 RMK A01 T01900021  RH  032%=      5-min Rain = 0
KMC4 172221Z 30005KT 19/02 A3009 RMK A01 T01890020  RH  032%=      5-min Rain = 0
KMC4 172222Z 30006KT 19/02 A3009 RMK A01 T01890020  RH  032%=      5-min Rain = 0
KMC4 172223Z 30007KT 19/02 A3009 RMK A01 T01890021  RH  032%=      5-min Rain = 0
KMC4 172224Z 31006KT 19/02 A3009 RMK A01 T01890022  RH  033%=      5-min Rain = 0
KMC4 172225Z 32008KT 19/02 A3009 RMK A01 T01900022  RH  033%=      5-min Rain = 0
KMC4 172226Z 33008KT 19/02 A3009 RMK A01 T01900020  RH  032%=      5-min Rain = 0
KMC4 172227Z 34007KT 19/02 A3009 RMK A01 T01900020  RH  032%=      5-min Rain = 0
KMC4 172228Z 34009KT 19/02 A3009 RMK A01 T01900020  RH  032%=      5-min Rain = 0
KMC4 172229Z 34008KT 19/02 A3009 RMK A01 T01890020  RH  032%=      5-min Rain = 0
KMC4 172230Z 32007KT 19/02 A3009 RMK A01 T01880021  RH  033%=      5-min Rain = 0
KMC4 172231Z 34006KT 19/02 A3009 RMK A01 T01880021  RH  033%=      5-min Rain = 0
KMC4 172232Z 33006KT 19/02 A3009 RMK A01 T01880020  RH  032%=      5-min Rain = 0
KMC4 172233Z 32007KT 19/02 A3009 RMK A01 T01880020  RH  032%=      5-min Rain = 0
KMC4 172234Z 32006KT 19/02 A3009 RMK A01 T01890021  RH  033%=      5-min Rain = 0
KMC4 172235Z 32006KT 19/02 A3009 RMK A01 T01900022  RH  033%=      5-min Rain = 0
KMC4 172236Z 32008KT 19/02 A3009 RMK A01 T01900021  RH  032%=      5-min Rain = 0
KMC4 172237Z 32008KT 19/02 A3009 RMK A01 T01900020  RH  032%=      5-min Rain = 0
KMC4 172238Z 31006KT 19/02 A3009 RMK A01 T01900020  RH  032%=      5-min Rain = 0
KMC4 172239Z 33007KT 19/02 A3009 RMK A01 T01900022  RH  033%=      5-min Rain = 0
KMC4 172240Z 32009KT 19/02 A3009 RMK A01 T01890020  RH  032%=      5-min Rain = 0
KMC4 172241Z 31007KT 19/02 A3009 RMK A01 T01890021  RH  032%=      5-min Rain = 0
KMC4 172242Z 32006KT 19/02 A3009 RMK A01 T01890022  RH  033%=      5-min Rain = 0
KMC4 172243Z 32008KT 19/02 A3009 RMK A01 T01890021  RH  032%=      5-min Rain = 0
KMC4 172244Z 33007KT 19/02 A3009 RMK A01 T01890021  RH  032%=      5-min Rain = 0
KMC4 172245Z 33008KT 19/02 A3009 RMK A01 T01900021  RH  032%=      5-min Rain = 0
KMC4 172246Z 33006KT 19/02 A3009 RMK A01 T01890020  RH  032%=      5-min Rain = 0
KMC4 172247Z 34008KT 19/02 A3009 RMK A01 T01880020  RH  033%=      5-min Rain = 0
KMC4 172248Z 32009KT 19/02 A3009 RMK A01 T01880020  RH  033%=      5-min Rain = 0
KMC4 172249Z 32008KT 19/02 A3009 RMK A01 T01880022  RH  033%=      5-min Rain = 0
KMC4 172250Z 32007KT 19/02 A3009 RMK A01 T01880021  RH  033%=      5-min Rain = 0
KMC4 172251Z 32006KT 19/02 A3009 RMK A01 T01880021  RH  033%=      5-min Rain = 0
KMC4 172252Z 31006KT 19/02 A3009 RMK A01 T01880021  RH  033%=      5-min Rain = 0
KMC4 172253Z 32007KT 19/02 A3009 RMK A01 T01890022  RH  033%=      5-min Rain = 0
KMC4 172254Z 32007KT 19/02 A3009 RMK A01 T01880022  RH  033%=      5-min Rain = 0
KMC4 172255Z 31006KT 19/02 A3009 RMK A01 T01880022  RH  033%=      5-min Rain = 0
KMC4 172256Z 32005KT 19/02 A3009 RMK A01 T01880022  RH  033%=      5-min Rain = 0
KMC4 172257Z 32006KT 19/02 A3009 RMK A01 T01880022  RH  033%=      5-min Rain = 0
KMC4 172258Z 33006KT 19/02 A3009 RMK A01 T01880023  RH  033%=      5-min Rain = 0
KMC4 172259Z 33008KT 19/02 A3009 RMK A01 T01880023  RH  033%=      5-min Rain = 0
KMC4 172300Z 34008KT 19/02 A3009 RMK A01 T01880022  RH  033%=      5-min Rain = 0
KMC4 172301Z 34007KT 19/02 A3009 RMK A01 T01870021  RH  033%=      5-min Rain = 0
KMC4 172302Z 34007KT 19/02 A3009 RMK A01 T01870020  RH  033%=      5-min Rain = 0
KMC4 172303Z 34005KT 19/02 A3009 RMK A01 T01860020  RH  033%=      5-min Rain = 0
KMC4 172304Z 35007KT 19/02 A3009 RMK A01 T01860021  RH  033%=      5-min Rain = 0
KMC4 172305Z 34007KT 19/02 A3009 RMK A01 T01860019  RH  033%=      5-min Rain = 0
KMC4 172306Z 33008KT 19/02 A3009 RMK A01 T01860020  RH  033%=      5-min Rain = 0
KMC4 172307Z 33007KT 19/02 A3009 RMK A01 T01850020  RH  033%=      5-min Rain = 0
KMC4 172308Z 34006KT 19/02 A3009 RMK A01 T01850022  RH  034%=      5-min Rain = 0
KMC4 172309Z 34004KT 19/02 A3009 RMK A01 T01850022  RH  034%=      5-min Rain = 0
KMC4 172310Z 34005KT 19/02 A3009 RMK A01 T01850022  RH  034%=      5-min Rain = 0
KMC4 172311Z 33005KT 18/02 A3009 RMK A01 T01840022  RH  034%=      5-min Rain = 0
KMC4 172312Z 33007KT 18/02 A3009 RMK A01 T01840021  RH  034%=      5-min Rain = 0
KMC4 172313Z 34007KT 18/02 A3009 RMK A01 T01840020  RH  033%=      5-min Rain = 0
KMC4 172314Z 34006KT 18/02 A3009 RMK A01 T01840021  RH  034%=      5-min Rain = 0
KMC4 172315Z 34006KT 18/02 A3009 RMK A01 T01830021  RH  034%=      5-min Rain = 0
KMC4 172316Z 34006KT 18/02 A3009 RMK A01 T01830021  RH  034%=      5-min Rain = 0
KMC4 172317Z 35006KT 18/02 A3009 RMK A01 T01830020  RH  034%=      5-min Rain = 0
KMC4 172318Z 35007KT 18/02 A3009 RMK A01 T01820020  RH  034%=      5-min Rain = 0
KMC4 172319Z 35006KT 18/02 A3009 RMK A01 T01820019  RH  034%=      5-min Rain = 0
KMC4 172320Z 34006KT 18/02 A3009 RMK A01 T01820020  RH  034%=      5-min Rain = 0
KMC4 172321Z 34007KT 18/02 A3009 RMK A01 T01820020  RH  034%=      5-min Rain = 0
KMC4 172322Z 34006KT 18/02 A3009 RMK A01 T01820020  RH  034%=      5-min Rain = 0
KMC4 172323Z 34005KT 18/02 A3009 RMK A01 T01810020  RH  034%=      5-min Rain = 0
KMC4 172324Z 33003KT 18/02 A3009 RMK A01 T01810021  RH  034%=      5-min Rain = 0
KMC4 172325Z 32004KT 18/02 A301 RMK A01 T01810022  RH  035%=      5-min Rain = 0
KMC4 172326Z 32005KT 18/02 A301 RMK A01 T01810022  RH  034%=      5-min Rain = 0
KMC4 172327Z 33004KT 18/02 A301 RMK A01 T01810022  RH  035%=      5-min Rain = 0
KMC4 172328Z 33003KT 18/02 A301 RMK A01 T01800022  RH  035%=      5-min Rain = 0
KMC4 172329Z 34004KT 18/02 A301 RMK A01 T01790022  RH  035%=      5-min Rain = 0
KMC4 172330Z 34005KT 18/02 A301 RMK A01 T01790022  RH  035%=      5-min Rain = 0
KMC4 172331Z 34005KT 18/02 A301 RMK A01 T01790022  RH  035%=      5-min Rain = 0
KMC4 172332Z 35005KT 18/02 A301 RMK A01 T01780023  RH  035%=      5-min Rain = 0
KMC4 172333Z 35005KT 18/02 A301 RMK A01 T01780022  RH  035%=      5-min Rain = 0
KMC4 172334Z 35005KT 18/02 A301 RMK A01 T01780022  RH  035%=      5-min Rain = 0
KMC4 172335Z 35005KT 18/02 A301 RMK A01 T01770022  RH  035%=      5-min Rain = 0
KMC4 172336Z 35005KT 18/02 A3009 RMK A01 T01770022  RH  036%=      5-min Rain = 0
KMC4 172337Z 34004KT 18/02 A301 RMK A01 T01760023  RH  036%=      5-min Rain = 0
KMC4 172338Z 34004KT 18/02 A301 RMK A01 T01760023  RH  036%=      5-min Rain = 0
KMC4 172339Z 34003KT 18/02 A301 RMK A01 T01750023  RH  036%=      5-min Rain = 0
KMC4 172340Z 33004KT 17/03 A301 RMK A01 T01740025  RH  037%=      5-min Rain = 0
KMC4 172341Z 34003KT 17/03 A301 RMK A01 T01730025  RH  037%=      5-min Rain = 0
KMC4 172342Z 34003KT 17/03 A301 RMK A01 T01720025  RH  037%=      5-min Rain = 0
KMC4 172343Z 35003KT 17/03 A301 RMK A01 T01710025  RH  037%=      5-min Rain = 0
KMC4 172344Z 35003KT 17/02 A301 RMK A01 T01710023  RH  037%=      5-min Rain = 0
KMC4 172345Z 34003KT 17/02 A301 RMK A01 T01710024  RH  037%=      5-min Rain = 0
KMC4 172346Z 35003KT 17/02 A3009 RMK A01 T01710024  RH  037%=      5-min Rain = 0
KMC4 172347Z 34002KT 17/02 A3009 RMK A01 T01700024  RH  037%=      5-min Rain = 0
KMC4 172348Z 34002KT 17/03 A3009 RMK A01 T01700025  RH  038%=      5-min Rain = 0
KMC4 172349Z 34002KT 17/03 A3009 RMK A01 T01690025  RH  038%=      5-min Rain = 0
KMC4 172350Z 35002KT 17/02 A3009 RMK A01 T01680024  RH  038%=      5-min Rain = 0
KMC4 172351Z 34003KT 17/02 A3009 RMK A01 T01680024  RH  038%=      5-min Rain = 0
KMC4 172352Z 34003KT 17/02 A3009 RMK A01 T01680024  RH  038%=      5-min Rain = 0
KMC4 172353Z 34004KT 17/02 A3009 RMK A01 T01680024  RH  038%=      5-min Rain = 0
KMC4 172354Z 35004KT 17/02 A3009 RMK A01 T01670024  RH  038%=      5-min Rain = 0
KMC4 172355Z 36004KT 17/02 A3009 RMK A01 T01670024  RH  038%=      5-min Rain = 0
KMC4 172356Z 36006KT 17/02 A3009 RMK A01 T01670024  RH  038%=      5-min Rain = 0
KMC4 172357Z 00006KT 17/02 A3009 RMK A01 T01670024  RH  038%=      5-min Rain = 0
KMC4 172358Z 00006KT 17/02 A3009 RMK A01 T01660024  RH  039%=      5-min Rain = 0
KMC4 172359Z 00006KT 17/03 A301 RMK A01 T01660025  RH  039%=      5-min Rain = 0
KMC4 180000Z 00006KT 17/03 A301 RMK A01 T01660025  RH  039%=      5-min Rain = 0
KMC4 180001Z 00006KT 17/03 A301 RMK A01 T01650025  RH  039%=      5-min Rain = 0
KMC4 180002Z 00005KT 16/03 A301 RMK A01 T01640025  RH  039%=      5-min Rain = 0
KMC4 180003Z 01005KT 16/03 A3009 RMK A01 T01640025  RH  039%=      5-min Rain = 0
KMC4 180004Z 01005KT 16/03 A3009 RMK A01 T01630025  RH  039%=      5-min Rain = 0
KMC4 180005Z 01005KT 16/03 A3009 RMK A01 T01630025  RH  039%=      5-min Rain = 0
KMC4 180006Z 00005KT 16/03 A3009 RMK A01 T01630025  RH  039%=      5-min Rain = 0
KMC4 180007Z 00004KT 16/03 A3009 RMK A01 T01630025  RH  039%=      5-min Rain = 0
KMC4 180008Z 00003KT 16/02 A3009 RMK A01 T01630024  RH  039%=      5-min Rain = 0
KMC4 180009Z 00003KT 16/02 A3009 RMK A01 T01630024  RH  039%=      5-min Rain = 0
KMC4 180010Z 36003KT 16/02 A301 RMK A01 T01630024  RH  039%=      5-min Rain = 0
KMC4 180011Z 36002KT 16/02 A3009 RMK A01 T01630024  RH  039%=      5-min Rain = 0
KMC4 180012Z 36002KT 16/03 A3009 RMK A01 T01620025  RH  040%=      5-min Rain = 0
KMC4 180013Z 36003KT 16/02 A3009 RMK A01 T01610024  RH  040%=      5-min Rain = 0
KMC4 180014Z 36003KT 16/02 A3009 RMK A01 T01610024  RH  040%=      5-min Rain = 0
KMC4 180015Z 36003KT 16/03 A301 RMK A01 T01600025  RH  040%=      5-min Rain = 0
KMC4 180016Z 36003KT 16/03 A301 RMK A01 T01600025  RH  040%=      5-min Rain = 0
KMC4 180017Z 36004KT 16/03 A301 RMK A01 T01600025  RH  040%=      5-min Rain = 0
KMC4 180018Z 00004KT 16/03 A301 RMK A01 T01590025  RH  040%=      5-min Rain = 0
KMC4 180019Z 01003KT 16/03 A301 RMK A01 T01590025  RH  040%=      5-min Rain = 0
KMC4 180020Z 01003KT 16/03 A301 RMK A01 T01580026  RH  041%=      5-min Rain = 0
KMC4 180021Z 01003KT 16/03 A301 RMK A01 T01560026  RH  041%=      5-min Rain = 0
KMC4 180022Z 01003KT 16/03 A301 RMK A01 T01560026  RH  042%=      5-min Rain = 0
KMC4 180023Z 01003KT 16/03 A301 RMK A01 T01550025  RH  042%=      5-min Rain = 0
KMC4 180024Z 01003KT 15/03 A301 RMK A01 T01540026  RH  042%=      5-min Rain = 0
KMC4 180025Z 02003KT 15/03 A301 RMK A01 T01540026  RH  042%=      5-min Rain = 0
KMC4 180026Z 02003KT 15/03 A301 RMK A01 T01520027  RH  043%=      5-min Rain = 0
KMC4 180027Z 02003KT 15/03 A301 RMK A01 T01510027  RH  043%=      5-min Rain = 0
KMC4 180028Z 02002KT 15/03 A301 RMK A01 T01500027  RH  044%=      5-min Rain = 0
KMC4 180029Z 02002KT 15/03 A301 RMK A01 T01490027  RH  044%=      5-min Rain = 0
KMC4 180030Z 02003KT 15/03 A301 RMK A01 T01480027  RH  044%=      5-min Rain = 0
KMC4 180031Z 02003KT 15/03 A301 RMK A01 T01480026  RH  044%=      5-min Rain = 0
KMC4 180032Z 02004KT 15/03 A301 RMK A01 T01470026  RH  044%=      5-min Rain = 0
KMC4 180033Z 02004KT 15/03 A301 RMK A01 T01470027  RH  044%=      5-min Rain = 0
KMC4 180034Z 01004KT 15/03 A301 RMK A01 T01460028  RH  045%=      5-min Rain = 0
KMC4 180035Z 01004KT 15/03 A301 RMK A01 T01450027  RH  045%=      5-min Rain = 0
KMC4 180036Z 01003KT 15/03 A3011 RMK A01 T01460026  RH  044%=      5-min Rain = 0
KMC4 180037Z 00003KT 15/03 A3011 RMK A01 T01460025  RH  044%=      5-min Rain = 0
KMC4 180038Z 00004KT 15/03 A3011 RMK A01 T01470025  RH  044%=      5-min Rain = 0
KMC4 180039Z 00004KT 15/03 A3011 RMK A01 T01480025  RH  044%=      5-min Rain = 0
KMC4 180040Z 00004KT 15/03 A3011 RMK A01 T01480025  RH  044%=      5-min Rain = 0
KMC4 180041Z 00004KT 15/03 A3011 RMK A01 T01480025  RH  043%=      5-min Rain = 0
KMC4 180042Z 36005KT 15/03 A3011 RMK A01 T01480025  RH  043%=      5-min Rain = 0
KMC4 180043Z 00005KT 15/03 A3011 RMK A01 T01480025  RH  043%=      5-min Rain = 0
KMC4 180044Z 00005KT 15/03 A3011 RMK A01 T01480026  RH  044%=      5-min Rain = 0
KMC4 180045Z 00005KT 15/03 A3011 RMK A01 T01470025  RH  044%=      5-min Rain = 0
KMC4 180046Z 00005KT 15/03 A3011 RMK A01 T01470025  RH  044%=      5-min Rain = 0
KMC4 180047Z 00004KT 15/03 A3011 RMK A01 T01470025  RH  044%=      5-min Rain = 0
KMC4 180048Z 00004KT 15/03 A3011 RMK A01 T01470026  RH  044%=      5-min Rain = 0
KMC4 180049Z 36004KT 15/03 A3011 RMK A01 T01460026  RH  044%=      5-min Rain = 0
KMC4 180050Z 00004KT 15/03 A3011 RMK A01 T01450026  RH  044%=      5-min Rain = 0
KMC4 180051Z 00004KT 15/03 A3011 RMK A01 T01450026  RH  045%=      5-min Rain = 0
KMC4 180052Z 00004KT 14/03 A3011 RMK A01 T01440025  RH  045%=      5-min Rain = 0
KMC4 180053Z 00004KT 14/03 A3011 RMK A01 T01440026  RH  045%=      5-min Rain = 0
KMC4 180054Z 00004KT 14/03 A3011 RMK A01 T01440026  RH  045%=      5-min Rain = 0
KMC4 180055Z 00005KT 14/03 A3011 RMK A01 T01440026  RH  045%=      5-min Rain = 0
KMC4 180056Z 00004KT 14/03 A3011 RMK A01 T01430026  RH  045%=      5-min Rain = 0
KMC4 180057Z 00004KT 14/03 A3011 RMK A01 T01430026  RH  045%=      5-min Rain = 0
KMC4 180058Z 00005KT 14/03 A3011 RMK A01 T01430025  RH  045%=      5-min Rain = 0
KMC4 180059Z 00005KT 14/03 A3011 RMK A01 T01430026  RH  045%=      5-min Rain = 0
KMC4 180100Z 01005KT 14/03 A3011 RMK A01 T01430026  RH  045%=      5-min Rain = 0
KMC4 180101Z 00005KT 14/03 A3011 RMK A01 T01420026  RH  045%=      5-min Rain = 0
KMC4 180102Z 00005KT 14/03 A3011 RMK A01 T01420026  RH  046%=      5-min Rain = 0
KMC4 180103Z 00005KT 14/03 A3011 RMK A01 T01410026  RH  046%=      5-min Rain = 0
KMC4 180104Z 00005KT 14/03 A3011 RMK A01 T01410026  RH  046%=      5-min Rain = 0
KMC4 180105Z 00005KT 14/03 A3011 RMK A01 T01400026  RH  046%=      5-min Rain = 0
KMC4 180106Z 00005KT 14/03 A3011 RMK A01 T01400026  RH  046%=      5-min Rain = 0
KMC4 180107Z 00005KT 14/03 A3011 RMK A01 T01390026  RH  046%=      5-min Rain = 0
KMC4 180108Z 36005KT 14/03 A3012 RMK A01 T01380026  RH  047%=      5-min Rain = 0
KMC4 180109Z 00005KT 14/03 A3012 RMK A01 T01380026  RH  047%=      5-min Rain = 0
KMC4 180110Z 00005KT 14/03 A3012 RMK A01 T01370027  RH  047%=      5-min Rain = 0
KMC4 180111Z 00005KT 14/03 A3012 RMK A01 T01370026  RH  047%=      5-min Rain = 0
KMC4 180112Z 00006KT 14/03 A3012 RMK A01 T01360026  RH  047%=      5-min Rain = 0
KMC4 180113Z 00006KT 14/03 A3012 RMK A01 T01360026  RH  047%=      5-min Rain = 0
KMC4 180114Z 00006KT 14/03 A3012 RMK A01 T01350026  RH  048%=      5-min Rain = 0
KMC4 180115Z 00006KT 14/03 A3012 RMK A01 T01350026  RH  048%=      5-min Rain = 0
KMC4 180116Z 00006KT 14/03 A3012 RMK A01 T01360026  RH  048%=      5-min Rain = 0
KMC4 180117Z 00005KT 14/03 A3012 RMK A01 T01350026  RH  048%=      5-min Rain = 0
KMC4 180118Z 00005KT 13/03 A3012 RMK A01 T01340026  RH  048%=      5-min Rain = 0
KMC4 180119Z 00005KT 13/03 A3012 RMK A01 T01340026  RH  048%=      5-min Rain = 0
KMC4 180120Z 01005KT 13/03 A3012 RMK A01 T01340026  RH  048%=      5-min Rain = 0
KMC4 180121Z 01005KT 13/03 A3012 RMK A01 T01340026  RH  048%=      5-min Rain = 0
KMC4 180122Z 01005KT 13/03 A3012 RMK A01 T01340026  RH  048%=      5-min Rain = 0
KMC4 180123Z 01004KT 13/03 A3012 RMK A01 T01330026  RH  048%=      5-min Rain = 0
KMC4 180124Z 01004KT 13/03 A3012 RMK A01 T01320026  RH  049%=      5-min Rain = 0
KMC4 180125Z 01004KT 13/03 A3012 RMK A01 T01320026  RH  049%=      5-min Rain = 0
KMC4 180126Z 01004KT 13/03 A3012 RMK A01 T01320025  RH  049%=      5-min Rain = 0
KMC4 180127Z 01004KT 13/03 A3012 RMK A01 T01320026  RH  049%=      5-min Rain = 0
KMC4 180128Z 01004KT 13/03 A3012 RMK A01 T01310025  RH  048%=      5-min Rain = 0
KMC4 180129Z 01004KT 13/03 A3012 RMK A01 T01310025  RH  048%=      5-min Rain = 0
KMC4 180130Z 01005KT 13/03 A3012 RMK A01 T01310025  RH  048%=      5-min Rain = 0
KMC4 180131Z 01004KT 13/03 A3012 RMK A01 T01310025  RH  049%=      5-min Rain = 0
KMC4 180132Z 01004KT 13/03 A3012 RMK A01 T01310025  RH  049%=      5-min Rain = 0
KMC4 180133Z 01005KT 13/03 A3012 RMK A01 T01300026  RH  049%=      5-min Rain = 0
KMC4 180134Z 01005KT 13/03 A3012 RMK A01 T01290025  RH  049%=      5-min Rain = 0
KMC4 180135Z 01004KT 13/03 A3013 RMK A01 T01290025  RH  049%=      5-min Rain = 0
KMC4 180136Z 01005KT 13/03 A3013 RMK A01 T01290025  RH  049%=      5-min Rain = 0
KMC4 180137Z 01005KT 13/03 A3013 RMK A01 T01290025  RH  049%=      5-min Rain = 0
KMC4 180138Z 01005KT 13/03 A3013 RMK A01 T01290026  RH  049%=      5-min Rain = 0
KMC4 180139Z 00005KT 13/03 A3012 RMK A01 T01280025  RH  050%=      5-min Rain = 0
KMC4 180140Z 01005KT 13/03 A3012 RMK A01 T01280025  RH  050%=      5-min Rain = 0
KMC4 180141Z 01005KT 13/03 A3012 RMK A01 T01280025  RH  050%=      5-min Rain = 0
KMC4 180142Z 01005KT 13/03 A3012 RMK A01 T01280025  RH  050%=      5-min Rain = 0
KMC4 180143Z 01005KT 13/03 A3012 RMK A01 T01280025  RH  049%=      5-min Rain = 0
KMC4 180144Z 01005KT 13/03 A3012 RMK A01 T01280025  RH  050%=      5-min Rain = 0
KMC4 180145Z 01006KT 13/03 A3012 RMK A01 T01270025  RH  050%=      5-min Rain = 0
KMC4 180146Z 01005KT 13/03 A3012 RMK A01 T01270025  RH  050%=      5-min Rain = 0
KMC4 180147Z 01006KT 13/03 A3012 RMK A01 T01270025  RH  050%=      5-min Rain = 0
KMC4 180148Z 01006KT 13/03 A3012 RMK A01 T01270025  RH  050%=      5-min Rain = 0
KMC4 180149Z 00006KT 13/03 A3012 RMK A01 T01270025  RH  050%=      5-min Rain = 0
KMC4 180150Z 01006KT 13/03 A3012 RMK A01 T01270025  RH  050%=      5-min Rain = 0
KMC4 180151Z 01005KT 13/03 A3012 RMK A01 T01270025  RH  050%=      5-min Rain = 0
KMC4 180152Z 01005KT 13/03 A3012 RMK A01 T01270025  RH  050%=      5-min Rain = 0
KMC4 180153Z 01005KT 13/03 A3012 RMK A01 T01270025  RH  050%=      5-min Rain = 0
KMC4 180154Z 01005KT 13/03 A3012 RMK A01 T01270025  RH  050%=      5-min Rain = 0
KMC4 180155Z 01005KT 13/03 A3012 RMK A01 T01260025  RH  050%=      5-min Rain = 0
KMC4 180156Z 01004KT 13/03 A3012 RMK A01 T01260025  RH  050%=      5-min Rain = 0
KMC4 180157Z 01005KT 13/03 A3012 RMK A01 T01260025  RH  050%=      5-min Rain = 0
KMC4 180158Z 01005KT 13/02 A3012 RMK A01 T01270024  RH  050%=      5-min Rain = 0
KMC4 180159Z 01005KT 13/02 A3012 RMK A01 T01270024  RH  050%=      5-min Rain = 0
KMC4 180200Z 01005KT 13/03 A3012 RMK A01 T01270025  RH  050%=      5-min Rain = 0
KMC4 180201Z 01006KT 13/03 A3012 RMK A01 T01270025  RH  050%=      5-min Rain = 0
KMC4 180202Z 01006KT 13/03 A3012 RMK A01 T01270025  RH  050%=      5-min Rain = 0
KMC4 180203Z 01006KT 13/03 A3012 RMK A01 T01270025  RH  050%=      5-min Rain = 0
KMC4 180204Z 01005KT 13/03 A3012 RMK A01 T01260025  RH  050%=      5-min Rain = 0
KMC4 180205Z 01005KT 13/03 A3012 RMK A01 T01260025  RH  050%=      5-min Rain = 0
KMC4 180206Z 01005KT 13/03 A3012 RMK A01 T01250025  RH  050%=      5-min Rain = 0
KMC4 180207Z 01005KT 13/03 A3012 RMK A01 T01260025  RH  050%=      5-min Rain = 0
KMC4 180208Z 01005KT 13/03 A3012 RMK A01 T01260025  RH  050%=      5-min Rain = 0
KMC4 180209Z 01004KT 13/03 A3012 RMK A01 T01260025  RH  050%=      5-min Rain = 0
KMC4 180210Z 02004KT 13/03 A3012 RMK A01 T01260025  RH  050%=      5-min Rain = 0
KMC4 180211Z 01004KT 13/03 A3012 RMK A01 T01270025  RH  050%=      5-min Rain = 0
KMC4 180212Z 01003KT 13/03 A3012 RMK A01 T01260025  RH  050%=      5-min Rain = 0
KMC4 180213Z 01003KT 13/03 A3012 RMK A01 T01260025  RH  050%=      5-min Rain = 0
KMC4 180214Z 01002KT 13/03 A3012 RMK A01 T01260025  RH  050%=      5-min Rain = 0
KMC4 180215Z 00000KT 13/03 A3012 RMK A01 T01250026  RH  051%=      5-min Rain = 0
KMC4 180216Z 20001KT 12/02 A3012 RMK A01 T01180024  RH  053%=      5-min Rain = 0
KMC4 180217Z 21001KT 11/02 A3013 RMK A01 T01100023  RH  055%=      5-min Rain = 0
KMC4 180218Z 21001KT 10/02 A3013 RMK A01 T01040024  RH  058%=      5-min Rain = 0
KMC4 180219Z 22000KT 10/03 A3013 RMK A01 T01010025  RH  059%=      5-min Rain = 0
KMC4 180220Z 00000KT 10/03 A3013 RMK A01 T01000025  RH  060%=      5-min Rain = 0
KMC4 180221Z 00000KT 10/03 A3013 RMK A01 T01000026  RH  060%=      5-min Rain = 0
KMC4 180222Z 00001KT 10/03 A3013 RMK A01 T00990025  RH  060%=      5-min Rain = 0
KMC4 180223Z 00002KT 10/03 A3013 RMK A01 T00990025  RH  060%=      5-min Rain = 0
KMC4 180224Z 36001KT 10/03 A3013 RMK A01 T01010026  RH  060%=      5-min Rain = 0
KMC4 180225Z 35001KT 10/03 A3013 RMK A01 T01020025  RH  059%=      5-min Rain = 0
KMC4 180226Z 35001KT 10/03 A3013 RMK A01 T01030025  RH  058%=      5-min Rain = 0
KMC4 180227Z 33001KT 11/03 A3013 RMK A01 T01050026  RH  058%=      5-min Rain = 0
KMC4 180228Z 31001KT 11/03 A3013 RMK A01 T01060027  RH  058%=      5-min Rain = 0
KMC4 180229Z 28002KT 11/03 A3013 RMK A01 T01060029  RH  059%=      5-min Rain = 0
KMC4 180230Z 27003KT 10/03 A3013 RMK A01 T01020028  RH  060%=      5-min Rain = 0
KMC4 180231Z 27004KT 10/03 A3013 RMK A01 T00990027  RH  061%=      5-min Rain = 0
KMC4 180232Z 28003KT 10/03 A3013 RMK A01 T00950027  RH  063%=      5-min Rain = 0
KMC4 180233Z 29004KT 09/03 A3013 RMK A01 T00920027  RH  064%=      5-min Rain = 0
KMC4 180234Z 27003KT 09/03 A3013 RMK A01 T00910027  RH  064%=      5-min Rain = 0
KMC4 180235Z 21004KT 09/03 A3013 RMK A01 T00890027  RH  065%=      5-min Rain = 0
KMC4 180236Z 24004KT 09/03 A3013 RMK A01 T00870026  RH  066%=      5-min Rain = 0
KMC4 180237Z 25004KT 09/03 A3013 RMK A01 T00860026  RH  066%=      5-min Rain = 0
KMC4 180238Z 26003KT 09/03 A3013 RMK A01 T00860026  RH  066%=      5-min Rain = 0
KMC4 180239Z 28003KT 09/03 A3013 RMK A01 T00860027  RH  066%=      5-min Rain = 0
KMC4 180240Z 29004KT 09/03 A3013 RMK A01 T00870027  RH  066%=      5-min Rain = 0
KMC4 180241Z 31004KT 09/03 A3013 RMK A01 T00880026  RH  065%=      5-min Rain = 0
KMC4 180242Z 31005KT 09/03 A3013 RMK A01 T00890026  RH  065%=      5-min Rain = 0
KMC4 180243Z 31005KT 09/03 A3013 RMK A01 T00900027  RH  065%=      5-min Rain = 0
KMC4 180244Z 32005KT 09/03 A3013 RMK A01 T00890028  RH  065%=      5-min Rain = 0
KMC4 180245Z 31005KT 09/03 A3013 RMK A01 T00890027  RH  065%=      5-min Rain = 0
KMC4 180246Z 31005KT 09/03 A3013 RMK A01 T00890027  RH  065%=      5-min Rain = 0
KMC4 180247Z 32005KT 09/03 A3013 RMK A01 T00900027  RH  064%=      5-min Rain = 0
KMC4 180248Z 32004KT 09/03 A3013 RMK A01 T00920027  RH  064%=      5-min Rain = 0
KMC4 180249Z 32004KT 09/03 A3013 RMK A01 T00930026  RH  063%=      5-min Rain = 0
KMC4 180250Z 31004KT 09/03 A3013 RMK A01 T00940026  RH  063%=      5-min Rain = 0
KMC4 180251Z 30003KT 10/03 A3013 RMK A01 T00950026  RH  062%=      5-min Rain = 0
KMC4 180252Z 29003KT 10/03 A3013 RMK A01 T00980026  RH  061%=      5-min Rain = 0
KMC4 180253Z 29002KT 10/03 A3013 RMK A01 T01000026  RH  060%=      5-min Rain = 0
KMC4 180254Z 29002KT 10/03 A3013 RMK A01 T01010026  RH  060%=      5-min Rain = 0
KMC4 180255Z 27002KT 10/03 A3013 RMK A01 T01010027  RH  060%=      5-min Rain = 0
KMC4 180256Z 30002KT 10/03 A3013 RMK A01 T01000027  RH  060%=      5-min Rain = 0
KMC4 180257Z 31001KT 10/03 A3013 RMK A01 T01000026  RH  060%=      5-min Rain = 0
KMC4 180258Z 31002KT 10/03 A3013 RMK A01 T01000026  RH  060%=      5-min Rain = 0
KMC4 180259Z 32002KT 10/03 A3013 RMK A01 T01000026  RH  060%=      5-min Rain = 0
KMC4 180300Z 33003KT 10/03 A3013 RMK A01 T00990026  RH  060%=      5-min Rain = 0
KMC4 180301Z 33002KT 10/03 A3013 RMK A01 T00990026  RH  061%=      5-min Rain = 0
KMC4 180302Z 31002KT 10/03 A3014 RMK A01 T00990026  RH  061%=      5-min Rain = 0
KMC4 180303Z 31003KT 10/03 A3014 RMK A01 T00980027  RH  061%=      5-min Rain = 0
KMC4 180304Z 31002KT 10/03 A3014 RMK A01 T00980026  RH  061%=      5-min Rain = 0
KMC4 180305Z 29002KT 10/03 A3014 RMK A01 T00970026  RH  061%=      5-min Rain = 0
KMC4 180306Z 29002KT 10/03 A3014 RMK A01 T00970026  RH  061%=      5-min Rain = 0
KMC4 180307Z 28001KT 10/03 A3014 RMK A01 T00970026  RH  061%=      5-min Rain = 0
KMC4 180308Z 28000KT 10/03 A3014 RMK A01 T00970026  RH  061%=      5-min Rain = 0
KMC4 180309Z 00000KT 10/03 A3014 RMK A01 T00970027  RH  062%=      5-min Rain = 0
KMC4 180310Z 00000KT 10/03 A3014 RMK A01 T00960028  RH  062%=      5-min Rain = 0
KMC4 180311Z 00000KT 10/03 A3014 RMK A01 T00950028  RH  063%=      5-min Rain = 0
KMC4 180312Z 28000KT 09/03 A3014 RMK A01 T00930029  RH  065%=      5-min Rain = 0
KMC4 180313Z 00000KT 09/03 A3014 RMK A01 T00890029  RH  066%=      5-min Rain = 0
KMC4 180314Z 16000KT 09/03 A3014 RMK A01 T00850028  RH  067%=      5-min Rain = 0
KMC4 180315Z 16001KT 08/03 A3014 RMK A01 T00820027  RH  068%=      5-min Rain = 0
KMC4 180316Z 24002KT 08/03 A3014 RMK A01 T00810027  RH  069%=      5-min Rain = 0
KMC4 180317Z 22002KT 08/03 A3014 RMK A01 T00820027  RH  068%=      5-min Rain = 0
KMC4 180318Z 20003KT 09/03 A3014 RMK A01 T00850027  RH  067%=      5-min Rain = 0
KMC4 180319Z 19004KT 09/03 A3014 RMK A01 T00860026  RH  066%=      5-min Rain = 0
KMC4 180320Z 19003KT 09/03 A3014 RMK A01 T00860025  RH  065%=      5-min Rain = 0
KMC4 180321Z 19003KT 09/02 A3014 RMK A01 T00870024  RH  065%=      5-min Rain = 0
KMC4 180322Z 19003KT 09/02 A3014 RMK A01 T00880024  RH  064%=      5-min Rain = 0
KMC4 180323Z 19003KT 09/02 A3014 RMK A01 T00890024  RH  064%=      5-min Rain = 0
KMC4 180324Z 19003KT 09/02 A3014 RMK A01 T00900024  RH  063%=      5-min Rain = 0
KMC4 180325Z 19002KT 09/02 A3014 RMK A01 T00900024  RH  063%=      5-min Rain = 0
KMC4 180326Z 18002KT 09/02 A3014 RMK A01 T00880024  RH  064%=      5-min Rain = 0
KMC4 180327Z 17002KT 09/02 A3014 RMK A01 T00860024  RH  065%=      5-min Rain = 0
KMC4 180328Z 17002KT 09/02 A3014 RMK A01 T00860024  RH  065%=      5-min Rain = 0
KMC4 180329Z 19002KT 09/02 A3014 RMK A01 T00860023  RH  065%=      5-min Rain = 0
KMC4 180330Z 20001KT 09/02 A3014 RMK A01 T00860024  RH  065%=      5-min Rain = 0
KMC4 180331Z 19001KT 09/03 A3014 RMK A01 T00860025  RH  065%=      5-min Rain = 0
KMC4 180332Z 20001KT 09/02 A3015 RMK A01 T00870024  RH  065%=      5-min Rain = 0
KMC4 180333Z 21001KT 09/02 A3014 RMK A01 T00880024  RH  064%=      5-min Rain = 0
KMC4 180334Z 21001KT 09/03 A3014 RMK A01 T00890025  RH  064%=      5-min Rain = 0
KMC4 180335Z 21001KT 09/02 A3014 RMK A01 T00900024  RH  063%=      5-min Rain = 0
KMC4 180336Z 21001KT 09/02 A3014 RMK A01 T00910024  RH  063%=      5-min Rain = 0
KMC4 180337Z 21000KT 09/02 A3014 RMK A01 T00930024  RH  062%=      5-min Rain = 0
KMC4 180338Z 00000KT 10/02 A3014 RMK A01 T00950024  RH  061%=      5-min Rain = 0
KMC4 180339Z 26001KT 10/02 A3014 RMK A01 T00970024  RH  060%=      5-min Rain = 0
KMC4 180340Z 28002KT 10/03 A3014 RMK A01 T00980025  RH  060%=      5-min Rain = 0
KMC4 180341Z 29002KT 10/03 A3014 RMK A01 T00970028  RH  062%=      5-min Rain = 0
KMC4 180342Z 29003KT 09/03 A3014 RMK A01 T00940029  RH  064%=      5-min Rain = 0
KMC4 180343Z 29003KT 09/03 A3014 RMK A01 T00910028  RH  065%=      5-min Rain = 0
KMC4 180344Z 29003KT 09/03 A3014 RMK A01 T00910027  RH  064%=      5-min Rain = 0
KMC4 180345Z 29003KT 09/03 A3014 RMK A01 T00910026  RH  064%=      5-min Rain = 0
KMC4 180346Z 29003KT 09/03 A3014 RMK A01 T00930027  RH  063%=      5-min Rain = 0
KMC4 180347Z 10003KT 09/03 A3014 RMK A01 T00930027  RH  063%=      5-min Rain = 0
KMC4 180348Z 09004KT 09/03 A3014 RMK A01 T00900027  RH  064%=      5-min Rain = 0
KMC4 180349Z 03001KT 09/03 A3014 RMK A01 T00880025  RH  065%=      5-min Rain = 0
KMC4 180350Z 04001KT 09/03 A3014 RMK A01 T00880025  RH  065%=      5-min Rain = 0
KMC4 180351Z 07002KT 09/03 A3014 RMK A01 T00900026  RH  064%=      5-min Rain = 0
KMC4 180352Z 10003KT 09/03 A3014 RMK A01 T00900027  RH  064%=      5-min Rain = 0
KMC4 180353Z 11002KT 09/03 A3014 RMK A01 T00900027  RH  065%=      5-min Rain = 0
KMC4 180354Z 12003KT 09/03 A3015 RMK A01 T00890027  RH  065%=      5-min Rain = 0
KMC4 180355Z 10003KT 09/03 A3015 RMK A01 T00860026  RH  066%=      5-min Rain = 0
KMC4 180356Z 10004KT 09/03 A3015 RMK A01 T00850026  RH  067%=      5-min Rain = 0
KMC4 180357Z 11003KT 08/03 A3015 RMK A01 T00840027  RH  067%=      5-min Rain = 0
KMC4 180358Z 10004KT 08/03 A3014 RMK A01 T00840027  RH  067%=      5-min Rain = 0
KMC4 180359Z 10004KT 08/03 A3014 RMK A01 T00840026  RH  067%=      5-min Rain = 0
KMC4 180400Z 10004KT 08/03 A3014 RMK A01 T00840026  RH  067%=      5-min Rain = 0
KMC4 180401Z 09005KT 09/03 A3014 RMK A01 T00850026  RH  067%=      5-min Rain = 0
KMC4 180402Z 08005KT 09/03 A3014 RMK A01 T00850026  RH  067%=      5-min Rain = 0
KMC4 180403Z 08005KT 09/03 A3014 RMK A01 T00850027  RH  067%=      5-min Rain = 0
KMC4 180404Z 08004KT 09/03 A3014 RMK A01 T00860027  RH  066%=      5-min Rain = 0
KMC4 180405Z 09004KT 09/03 A3014 RMK A01 T00860027  RH  066%=      5-min Rain = 0
KMC4 180406Z 10003KT 09/03 A3014 RMK A01 T00870027  RH  066%=      5-min Rain = 0
KMC4 180407Z 11003KT 09/03 A3014 RMK A01 T00870027  RH  066%=      5-min Rain = 0
KMC4 180408Z 10002KT 09/03 A3014 RMK A01 T00870028  RH  066%=      5-min Rain = 0
KMC4 180409Z 07001KT 09/03 A3014 RMK A01 T00860027  RH  067%=      5-min Rain = 0
KMC4 180410Z 08001KT 09/03 A3014 RMK A01 T00850027  RH  067%=      5-min Rain = 0
KMC4 180411Z 11001KT 09/03 A3014 RMK A01 T00850026  RH  067%=      5-min Rain = 0
KMC4 180412Z 10001KT 09/03 A3014 RMK A01 T00850026  RH  067%=      5-min Rain = 0
KMC4 180413Z 07002KT 09/03 A3014 RMK A01 T00850026  RH  067%=      5-min Rain = 0
KMC4 180414Z 07002KT 09/03 A3014 RMK A01 T00850026  RH  066%=      5-min Rain = 0
KMC4 180415Z 07003KT 09/03 A3014 RMK A01 T00860026  RH  066%=      5-min Rain = 0
KMC4 180416Z 05003KT 09/03 A3014 RMK A01 T00860026  RH  066%=      5-min Rain = 0
KMC4 180417Z 04003KT 09/03 A3014 RMK A01 T00870027  RH  066%=      5-min Rain = 0
KMC4 180418Z 03003KT 09/03 A3014 RMK A01 T00860027  RH  066%=      5-min Rain = 0
KMC4 180419Z 03003KT 09/03 A3014 RMK A01 T00860026  RH  066%=      5-min Rain = 0
KMC4 180420Z 03002KT 09/03 A3014 RMK A01 T00860026  RH  066%=      5-min Rain = 0
KMC4 180421Z 02002KT 09/03 A3014 RMK A01 T00870026  RH  066%=      5-min Rain = 0
KMC4 180422Z 02003KT 09/03 A3014 RMK A01 T00870027  RH  066%=      5-min Rain = 0
KMC4 180423Z 02003KT 09/03 A3014 RMK A01 T00870027  RH  066%=      5-min Rain = 0
KMC4 180424Z 02003KT 09/03 A3014 RMK A01 T00870026  RH  066%=      5-min Rain = 0
KMC4 180425Z 02003KT 09/03 A3014 RMK A01 T00870026  RH  065%=      5-min Rain = 0
KMC4 180426Z 03004KT 09/03 A3014 RMK A01 T00880026  RH  065%=      5-min Rain = 0
KMC4 180427Z 03004KT 09/03 A3014 RMK A01 T00870027  RH  066%=      5-min Rain = 0
KMC4 180428Z 03004KT 09/03 A3014 RMK A01 T00860027  RH  067%=      5-min Rain = 0
KMC4 180429Z 03003KT 09/03 A3014 RMK A01 T00850027  RH  067%=      5-min Rain = 0
KMC4 180430Z 03003KT 08/03 A3014 RMK A01 T00840027  RH  067%=      5-min Rain = 0
KMC4 180431Z 02003KT 08/03 A3014 RMK A01 T00830027  RH  068%=      5-min Rain = 0
KMC4 180432Z 03003KT 08/03 A3013 RMK A01 T00830027  RH  068%=      5-min Rain = 0
KMC4 180433Z 03003KT 08/03 A3013 RMK A01 T00830027  RH  067%=      5-min Rain = 0
KMC4 180434Z 03003KT 08/03 A3013 RMK A01 T00840026  RH  067%=      5-min Rain = 0
KMC4 180435Z 03002KT 08/03 A3013 RMK A01 T00840026  RH  067%=      5-min Rain = 0
KMC4 180436Z 03003KT 08/03 A3013 RMK A01 T00840027  RH  067%=      5-min Rain = 0
KMC4 180437Z 03003KT 08/03 A3013 RMK A01 T00840027  RH  067%=      5-min Rain = 0
KMC4 180438Z 03003KT 08/03 A3013 RMK A01 T00840027  RH  067%=      5-min Rain = 0
KMC4 180439Z 03003KT 08/03 A3013 RMK A01 T00840027  RH  067%=      5-min Rain = 0
KMC4 180440Z 04004KT 08/03 A3013 RMK A01 T00840026  RH  067%=      5-min Rain = 0
KMC4 180441Z 04003KT 08/03 A3013 RMK A01 T00840027  RH  067%=      5-min Rain = 0
KMC4 180442Z 04003KT 08/03 A3013 RMK A01 T00830027  RH  068%=      5-min Rain = 0
KMC4 180443Z 03003KT 08/03 A3013 RMK A01 T00820027  RH  068%=      5-min Rain = 0
KMC4 180444Z 03003KT 08/03 A3013 RMK A01 T00830027  RH  068%=      5-min Rain = 0
KMC4 180445Z 03003KT 08/03 A3013 RMK A01 T00840026  RH  067%=      5-min Rain = 0
KMC4 180446Z 03003KT 09/03 A3013 RMK A01 T00870026  RH  066%=      5-min Rain = 0
KMC4 180447Z 03003KT 09/03 A3013 RMK A01 T00880026  RH  065%=      5-min Rain = 0
KMC4 180448Z 03002KT 09/03 A3013 RMK A01 T00890026  RH  065%=      5-min Rain = 0
KMC4 180449Z 03002KT 09/03 A3013 RMK A01 T00890026  RH  065%=      5-min Rain = 0
KMC4 180450Z 03002KT 09/03 A3013 RMK A01 T00880027  RH  066%=      5-min Rain = 0
KMC4 180451Z 03002KT 09/03 A3013 RMK A01 T00850027  RH  066%=      5-min Rain = 0
KMC4 180452Z 03002KT 08/03 A3013 RMK A01 T00840026  RH  067%=      5-min Rain = 0
KMC4 180453Z 03002KT 08/03 A3013 RMK A01 T00840026  RH  067%=      5-min Rain = 0
KMC4 180454Z 02002KT 08/03 A3013 RMK A01 T00840026  RH  067%=      5-min Rain = 0
KMC4 180455Z 01002KT 08/03 A3013 RMK A01 T00840025  RH  067%=      5-min Rain = 0
KMC4 180456Z 02002KT 08/03 A3013 RMK A01 T00840025  RH  066%=      5-min Rain = 0
KMC4 180457Z 03002KT 08/02 A3013 RMK A01 T00830024  RH  066%=      5-min Rain = 0
KMC4 180458Z 03003KT 08/02 A3013 RMK A01 T00830024  RH  067%=      5-min Rain = 0
KMC4 180459Z 03002KT 08/02 A3013 RMK A01 T00820024  RH  067%=      5-min Rain = 0
KMC4 180500Z 03003KT 08/03 A3013 RMK A01 T00810025  RH  068%=      5-min Rain = 0
KMC4 180501Z 03002KT 08/03 A3013 RMK A01 T00800025  RH  068%=      5-min Rain = 0
KMC4 180502Z 03003KT 08/03 A3013 RMK A01 T00790025  RH  069%=      5-min Rain = 0
KMC4 180503Z 03003KT 08/03 A3013 RMK A01 T00780025  RH  069%=      5-min Rain = 0
KMC4 180504Z 03003KT 08/03 A3013 RMK A01 T00780025  RH  069%=      5-min Rain = 0
KMC4 180505Z 03002KT 08/02 A3013 RMK A01 T00780024  RH  069%=      5-min Rain = 0
KMC4 180506Z 03002KT 08/03 A3013 RMK A01 T00780025  RH  069%=      5-min Rain = 0
KMC4 180507Z 04002KT 08/03 A3013 RMK A01 T00780025  RH  069%=      5-min Rain = 0
KMC4 180508Z 03002KT 08/02 A3013 RMK A01 T00770024  RH  069%=      5-min Rain = 0
KMC4 180509Z 03002KT 08/02 A3012 RMK A01 T00770024  RH  069%=      5-min Rain = 0
KMC4 180510Z 04002KT 08/02 A3012 RMK A01 T00770024  RH  069%=      5-min Rain = 0
KMC4 180511Z 04002KT 08/02 A3012 RMK A01 T00770024  RH  069%=      5-min Rain = 0
KMC4 180512Z 04001KT 08/02 A3012 RMK A01 T00770024  RH  069%=      5-min Rain = 0
KMC4 180513Z 04000KT 08/02 A3012 RMK A01 T00770024  RH  069%=      5-min Rain = 0
KMC4 180514Z 00000KT 07/02 A3012 RMK A01 T00740024  RH  071%=      5-min Rain = 0
KMC4 180515Z 00000KT 07/02 A3012 RMK A01 T00720024  RH  072%=      5-min Rain = 0
KMC4 180516Z 24001KT 07/02 A3012 RMK A01 T00690024  RH  073%=      5-min Rain = 0
KMC4 180517Z 24001KT 07/02 A3012 RMK A01 T00660023  RH  074%=      5-min Rain = 0
KMC4 180518Z 24001KT 06/02 A3012 RMK A01 T00630022  RH  075%=      5-min Rain = 0
KMC4 180519Z 25001KT 06/02 A3012 RMK A01 T00610022  RH  076%=      5-min Rain = 0
KMC4 180520Z 26001KT 06/02 A3012 RMK A01 T00600022  RH  077%=      5-min Rain = 0
KMC4 180521Z 27001KT 06/02 A3012 RMK A01 T00590023  RH  078%=      5-min Rain = 0
KMC4 180522Z 28001KT 06/02 A3012 RMK A01 T00590024  RH  078%=      5-min Rain = 0
KMC4 180523Z 28001KT 06/02 A3012 RMK A01 T00600024  RH  078%=      5-min Rain = 0
KMC4 180524Z 28001KT 06/02 A3012 RMK A01 T00600023  RH  077%=      5-min Rain = 0
KMC4 180525Z 27001KT 06/02 A3012 RMK A01 T00600023  RH  077%=      5-min Rain = 0
KMC4 180526Z 27001KT 06/02 A3011 RMK A01 T00610023  RH  077%=      5-min Rain = 0
KMC4 180527Z 26002KT 06/02 A3012 RMK A01 T00610023  RH  077%=      5-min Rain = 0
KMC4 180528Z 26002KT 06/02 A3012 RMK A01 T00610024  RH  077%=      5-min Rain = 0
KMC4 180529Z 26002KT 06/02 A3012 RMK A01 T00620023  RH  076%=      5-min Rain = 0
KMC4 180530Z 26001KT 06/02 A3012 RMK A01 T00620023  RH  076%=      5-min Rain = 0
KMC4 180531Z 25002KT 06/02 A3011 RMK A01 T00630023  RH  076%=      5-min Rain = 0
KMC4 180532Z 24003KT 06/02 A3011 RMK A01 T00640024  RH  076%=      5-min Rain = 0
KMC4 180533Z 24004KT 06/02 A3011 RMK A01 T00640024  RH  075%=      5-min Rain = 0
KMC4 180534Z 24004KT 07/02 A3011 RMK A01 T00650024  RH  075%=      5-min Rain = 0
KMC4 180535Z 24004KT 07/02 A3011 RMK A01 T00660024  RH  075%=      5-min Rain = 0
KMC4 180536Z 25003KT 07/02 A3011 RMK A01 T00660024  RH  074%=      5-min Rain = 0
KMC4 180537Z 25002KT 07/02 A3011 RMK A01 T00650024  RH  075%=      5-min Rain = 0
KMC4 180538Z 27002KT 07/02 A3011 RMK A01 T00650024  RH  075%=      5-min Rain = 0
KMC4 180539Z 28002KT 07/02 A3011 RMK A01 T00660024  RH  074%=      5-min Rain = 0
KMC4 180540Z 28002KT 07/02 A3011 RMK A01 T00660023  RH  074%=      5-min Rain = 0
KMC4 180541Z 28002KT 07/02 A3011 RMK A01 T00660023  RH  074%=      5-min Rain = 0
KMC4 180542Z 29002KT 07/02 A3011 RMK A01 T00670023  RH  073%=      5-min Rain = 0
KMC4 180543Z 30002KT 07/02 A3011 RMK A01 T00680023  RH  073%=      5-min Rain = 0
KMC4 180544Z 32002KT 07/02 A3011 RMK A01 T00690023  RH  073%=      5-min Rain = 0
KMC4 180545Z 32001KT 07/02 A3011 RMK A01 T00690023  RH  073%=      5-min Rain = 0
KMC4 180546Z 30001KT 07/02 A3011 RMK A01 T00690023  RH  073%=      5-min Rain = 0
KMC4 180547Z 29001KT 07/02 A3011 RMK A01 T00690023  RH  073%=      5-min Rain = 0
KMC4 180548Z 29001KT 07/02 A3011 RMK A01 T00690023  RH  073%=      5-min Rain = 0
KMC4 180549Z 29001KT 07/02 A3011 RMK A01 T00690023  RH  073%=      5-min Rain = 0
KMC4 180550Z 29000KT 07/02 A3011 RMK A01 T00690023  RH  073%=      5-min Rain = 0
KMC4 180551Z 00000KT 07/02 A3011 RMK A01 T00680023  RH  073%=      5-min Rain = 0
KMC4 180552Z 23000KT 07/02 A3011 RMK A01 T00670024  RH  074%=      5-min Rain = 0
KMC4 180553Z 24001KT 07/02 A3011 RMK A01 T00660024  RH  074%=      5-min Rain = 0
KMC4 180554Z 24001KT 07/02 A3011 RMK A01 T00650024  RH  075%=      5-min Rain = 0
KMC4 180555Z 24002KT 07/02 A3011 RMK A01 T00650024  RH  075%=      5-min Rain = 0
KMC4 180556Z 25002KT 06/02 A3011 RMK A01 T00640024  RH  075%=      5-min Rain = 0
KMC4 180557Z 25002KT 06/02 A3011 RMK A01 T00640023  RH  075%=      5-min Rain = 0
KMC4 180558Z 23002KT 06/02 A3011 RMK A01 T00630022  RH  075%=      5-min Rain = 0
KMC4 180559Z 22002KT 06/02 A3011 RMK A01 T00640022  RH  075%=      5-min Rain = 0

Page generated in 0.1228 seconds.